Wetterdaten: Montag, 13.05.2013
Datum Zeit Temp. Aussen +5cm Feuchte Auss Luftdruck Regen Sonnenschein Regendauer UV Solar Windben
13.05.2013 00:00 9,6 C 8,4 C 81 % 1016,2 hPa 0,0 l/m 0 min 0 min 0,0 UV-I 0 W/m 0,0 km/h (0 Bft)
13.05.2013 00:02 9,6 C 8,4 C 81 % 1016,2 hPa 0,0 l/m 0 min 0 min 0,0 UV-I 0 W/m 5,1 km/h (1 Bft)
13.05.2013 00:06 9,6 C 8,4 C 81 % 1016,2 hPa 0,0 l/m 0 min 0 min 0,0 UV-I 0 W/m 7,7 km/h (2 Bft)
13.05.2013 00:08 9,6 C 8,4 C 81 % 1016,2 hPa 0,0 l/m 0 min 0 min 0,0 UV-I 0 W/m 0,0 km/h (0 Bft)
13.05.2013 00:10 9,6 C 8,4 C 81 % 1016,2 hPa 0,0 l/m 0 min 0 min 0,0 UV-I 0 W/m 5,1 km/h (1 Bft)
13.05.2013 00:12 9,6 C 8,4 C 81 % 1016,2 hPa 0,0 l/m 0 min 0 min 0,0 UV-I 0 W/m 2,6 km/h (1 Bft)
13.05.2013 00:14 9,6 C 8,4 C 81 % 1016,2 hPa 0,0 l/m 0 min 0 min 0,0 UV-I 0 W/m 0,0 km/h (0 Bft)
13.05.2013 00:16 9,6 C 8,4 C 81 % 1016,2 hPa 0,0 l/m 0 min 0 min 0,0 UV-I 0 W/m 5,1 km/h (1 Bft)
13.05.2013 00:18 9,6 C 8,4 C 81 % 1016,3 hPa 0,0 l/m 0 min 0 min 0,0 UV-I 0 W/m 0,0 km/h (0 Bft)
13.05.2013 00:20 9,6 C 8,4 C 81 % 1016,2 hPa 0,0 l/m 0 min 0 min 0,0 UV-I 0 W/m 0,0 km/h (0 Bft)
13.05.2013 00:22 9,6 C 8,4 C 81 % 1016,2 hPa 0,0 l/m 0 min 0 min 0,0 UV-I 0 W/m 10,3 km/h (2 Bft)
13.05.2013 00:24 9,6 C 8,4 C 81 % 1016,2 hPa 0,0 l/m 0 min 0 min 0,0 UV-I 0 W/m 5,1 km/h (1 Bft)
13.05.2013 00:26 9,6 C 8,4 C 81 % 1016,2 hPa 0,0 l/m 0 min 0 min 0,0 UV-I 0 W/m 7,7 km/h (2 Bft)
13.05.2013 00:28 9,6 C 8,4 C 80 % 1016,2 hPa 0,0 l/m 0 min 0 min 0,0 UV-I 0 W/m 2,6 km/h (1 Bft)
13.05.2013 00:30 9,6 C 8,4 C 80 % 1016,2 hPa 0,0 l/m 0 min 0 min 0,0 UV-I 0 W/m 0,0 km/h (0 Bft)
13.05.2013 00:32 9,6 C 8,4 C 80 % 1016,2 hPa 0,0 l/m 0 min 0 min 0,0 UV-I 0 W/m 12,9 km/h (3 Bft)
13.05.2013 00:34 9,6 C 8,4 C 80 % 1016,2 hPa 0,0 l/m 0 min 0 min 0,0 UV-I 0 W/m 10,3 km/h (2 Bft)
13.05.2013 00:36 9,6 C 8,4 C 80 % 1016,2 hPa 0,0 l/m 0 min 0 min 0,0 UV-I 0 W/m 2,6 km/h (1 Bft)
13.05.2013 00:38 9,6 C 8,4 C 80 % 1016,3 hPa 0,0 l/m 0 min 0 min 0,0 UV-I 0 W/m 5,1 km/h (1 Bft)
13.05.2013 00:40 9,6 C 8,4 C 79 % 1016,4 hPa 0,0 l/m 0 min 0 min 0,0 UV-I 0 W/m 7,7 km/h (2 Bft)
13.05.2013 00:42 9,6 C 8,4 C 79 % 1016,2 hPa 0,0 l/m 0 min 0 min 0,0 UV-I 0 W/m 5,1 km/h (1 Bft)
13.05.2013 00:44 9,6 C 8,4 C 79 % 1016,3 hPa 0,0 l/m 0 min 0 min 0,0 UV-I 0 W/m 0,0 km/h (0 Bft)
13.05.2013 00:46 9,7 C 8,4 C 79 % 1016,3 hPa 0,0 l/m 0 min 0 min 0,0 UV-I 0 W/m 2,6 km/h (1 Bft)
13.05.2013 00:48 9,7 C 8,4 C 78 % 1016,2 hPa 0,0 l/m 0 min 0 min 0,0 UV-I 0 W/m 10,3 km/h (2 Bft)
13.05.2013 00:50 9,7 C 8,4 C 78 % 1016,2 hPa 0,0 l/m 0 min 0 min 0,0 UV-I 0 W/m 15,4 km/h (3 Bft)
13.05.2013 00:52 9,7 C 8,4 C 78 % 1016,2 hPa 0,0 l/m 0 min 0 min 0,0 UV-I 0 W/m 2,6 km/h (1 Bft)
13.05.2013 00:54 9,7 C 8,4 C 78 % 1016,1 hPa 0,0 l/m 0 min 0 min 0,0 UV-I 0 W/m 12,9 km/h (3 Bft)
13.05.2013 00:56 9,7 C 8,4 C 78 % 1016,1 hPa 0,0 l/m 0 min 0 min 0,0 UV-I 0 W/m 7,7 km/h (2 Bft)
13.05.2013 00:58 9,7 C 8,4 C 78 % 1016,1 hPa 0,0 l/m 0 min 0 min 0,0 UV-I 0 W/m 5,1 km/h (1 Bft)
13.05.2013 01:00 9,7 C 8,4 C 78 % 1016,1 hPa 0,0 l/m 0 min 0 min 0,0 UV-I 0 W/m 10,3 km/h (2 Bft)
13.05.2013 01:02 9,7 C 8,4 C 78 % 1016,1 hPa 0,0 l/m 0 min 2 min 0,0 UV-I 0 W/m 7,7 km/h (2 Bft)
13.05.2013 01:04 9,7 C 8,4 C 78 % 1016,1 hPa 0,0 l/m 0 min 2 min 0,0 UV-I 0 W/m 0,0 km/h (0 Bft)
13.05.2013 01:06 9,7 C 8,4 C 78 % 1016,1 hPa 0,0 l/m 0 min 2 min 0,0 UV-I 0 W/m 10,3 km/h (2 Bft)
13.05.2013 01:08 9,7 C 8,4 C 77 % 1016,0 hPa 0,0 l/m 0 min 0 min 0,0 UV-I 0 W/m 12,9 km/h (3 Bft)
13.05.2013 01:10 9,7 C 8,4 C 78 % 1015,9 hPa 0,0 l/m 0 min 2 min 0,0 UV-I 0 W/m 7,7 km/h (2 Bft)
13.05.2013 01:12 9,7 C 7,9 C 78 % 1015,9 hPa 0,0 l/m 0 min 2 min 0,0 UV-I 0 W/m 0,0 km/h (0 Bft)
13.05.2013 01:14 9,7 C 7,9 C 78 % 1015,9 hPa 0,0 l/m 0 min 2 min 0,0 UV-I 0 W/m 0,0 km/h (0 Bft)
13.05.2013 01:16 9,7 C 7,9 C 78 % 1015,9 hPa 0,0 l/m 0 min 2 min 0,0 UV-I 0 W/m 12,9 km/h (3 Bft)
13.05.2013 01:18 9,7 C 7,3 C 79 % 1015,9 hPa 0,0 l/m 0 min 2 min 0,0 UV-I 0 W/m 0,0 km/h (0 Bft)
13.05.2013 01:20 9,7 C 7,3 C 78 % 1015,9 hPa 0,0 l/m 0 min 2 min 0,0 UV-I 0 W/m 7,7 km/h (2 Bft)
13.05.2013 01:22 9,6 C 7,3 C 78 % 1015,8 hPa 0,0 l/m 0 min 2 min 0,0 UV-I 0 W/m 5,1 km/h (1 Bft)
13.05.2013 01:24 9,6 C 7,3 C 79 % 1015,8 hPa 0,0 l/m 0 min 2 min 0,0 UV-I 0 W/m 7,7 km/h (2 Bft)
13.05.2013 01:26 9,6 C 7,3 C 80 % 1015,9 hPa 0,0 l/m 0 min 2 min 0,0 UV-I 0 W/m 2,6 km/h (1 Bft)
13.05.2013 01:28 9,6 C 7,3 C 80 % 1015,9 hPa 0,0 l/m 0 min 2 min 0,0 UV-I 0 W/m 12,9 km/h (3 Bft)
13.05.2013 01:30 9,5 C 6,8 C 81 % 1015,8 hPa 0,0 l/m 0 min 2 min 0,0 UV-I 0 W/m 12,9 km/h (3 Bft)
13.05.2013 01:32 9,4 C 6,8 C 81 % 1015,8 hPa 0,0 l/m 0 min 2 min 0,0 UV-I 0 W/m 7,7 km/h (2 Bft)
13.05.2013 01:34 9,4 C 6,8 C 82 % 1015,8 hPa 0,0 l/m 0 min 2 min 0,0 UV-I 0 W/m 10,3 km/h (2 Bft)
13.05.2013 01:36 9,4 C 6,8 C 82 % 1015,8 hPa 0,0 l/m 0 min 2 min 0,0 UV-I 0 W/m 2,6 km/h (1 Bft)
13.05.2013 01:38 9,3 C 6,8 C 82 % 1015,8 hPa 0,0 l/m 0 min 2 min 0,0 UV-I 0 W/m 2,6 km/h (1 Bft)
13.05.2013 01:40 9,3 C 6,8 C 83 % 1015,7 hPa 0,0 l/m 0 min 2 min 0,0 UV-I 0 W/m 12,9 km/h (3 Bft)
13.05.2013 01:42 9,2 C 6,8 C 83 % 1015,8 hPa 0,2 l/m 0 min 2 min 0,0 UV-I 0 W/m 0,0 km/h (0 Bft)
13.05.2013 01:44 9,2 C 6,8 C 83 % 1015,7 hPa 0,0 l/m 0 min 2 min 0,0 UV-I 0 W/m 5,1 km/h (1 Bft)
13.05.2013 01:46 9,2 C 6,8 C 83 % 1015,6 hPa 0,0 l/m 0 min 2 min 0,0 UV-I 0 W/m 5,1 km/h (1 Bft)
13.05.2013 01:48 9,2 C 6,8 C 84 % 1015,7 hPa 0,0 l/m 0 min 0 min 0,0 UV-I 0 W/m 10,3 km/h (2 Bft)
13.05.2013 01:50 9,1 C 6,8 C 84 % 1015,6 hPa 0,0 l/m 0 min 0 min 0,0 UV-I 0 W/m 7,7 km/h (2 Bft)
13.05.2013 01:52 9,1 C 6,8 C 84 % 1015,5 hPa 0,0 l/m 0 min 2 min 0,0 UV-I 0 W/m 7,7 km/h (2 Bft)
13.05.2013 01:54 9,0 C 6,8 C 85 % 1015,5 hPa 0,0 l/m 0 min 2 min 0,0 UV-I 0 W/m 5,1 km/h (1 Bft)
13.05.2013 01:56 9,0 C 6,8 C 85 % 1015,6 hPa 0,0 l/m 0 min 2 min 0,0 UV-I 0 W/m 0,0 km/h (0 Bft)
13.05.2013 01:58 8,9 C 6,8 C 85 % 1015,5 hPa 0,0 l/m 0 min 2 min 0,0 UV-I 0 W/m 7,7 km/h (2 Bft)
13.05.2013 02:00 8,9 C 6,8 C 85 % 1015,5 hPa 0,0 l/m 0 min 2 min 0,0 UV-I 0 W/m 12,9 km/h (3 Bft)
13.05.2013 02:02 8,9 C 6,8 C 86 % 1015,4 hPa 0,0 l/m 0 min 2 min 0,0 UV-I 0 W/m 2,6 km/h (1 Bft)
13.05.2013 02:04 8,8 C 6,8 C 86 % 1015,4 hPa 0,0 l/m 0 min 2 min 0,0 UV-I 0 W/m 0,0 km/h (0 Bft)
13.05.2013 02:06 8,8 C 6,8 C 86 % 1015,4 hPa 0,0 l/m 0 min 2 min 0,0 UV-I 0 W/m 5,1 km/h (1 Bft)
13.05.2013 02:08 8,8 C 6,8 C 86 % 1015,4 hPa 0,0 l/m 0 min 2 min 0,0 UV-I 0 W/m 2,6 km/h (1 Bft)
13.05.2013 02:10 8,8 C 6,8 C 86 % 1015,4 hPa 0,0 l/m 0 min 2 min 0,0 UV-I 0 W/m 2,6 km/h (1 Bft)
13.05.2013 02:12 8,7 C 6,8 C 86 % 1015,4 hPa 0,0 l/m 0 min 2 min 0,0 UV-I 0 W/m 0,0 km/h (0 Bft)
13.05.2013 02:14 8,7 C 6,8 C 87 % 1015,3 hPa 0,0 l/m 0 min 2 min 0,0 UV-I 0 W/m 0,0 km/h (0 Bft)
13.05.2013 02:16 8,7 C 6,8 C 87 % 1015,3 hPa 0,0 l/m 0 min 2 min 0,0 UV-I 0 W/m 0,0 km/h (0 Bft)
13.05.2013 02:18 8,7 C 6,8 C 87 % 1015,3 hPa 0,0 l/m 0 min 2 min 0,0 UV-I 0 W/m 0,0 km/h (0 Bft)
13.05.2013 02:20 8,7 C 6,8 C 87 % 1015,2 hPa 0,0 l/m 0 min 2 min 0,0 UV-I 0 W/m 0,0 km/h (0 Bft)
13.05.2013 02:22 8,7 C 6,8 C 88 % 1015,2 hPa 0,0 l/m 0 min 2 min 0,0 UV-I 0 W/m 10,3 km/h (2 Bft)
13.05.2013 02:24 8,6 C 6,8 C 88 % 1015,1 hPa 0,2 l/m 0 min 2 min 0,0 UV-I 0 W/m 0,0 km/h (0 Bft)
13.05.2013 02:26 8,6 C 6,8 C 88 % 1015,1 hPa 0,0 l/m 0 min 2 min 0,0 UV-I 0 W/m 7,7 km/h (2 Bft)
13.05.2013 02:28 8,6 C 6,8 C 88 % 1015,1 hPa 0,0 l/m 0 min 2 min 0,0 UV-I 0 W/m 0,0 km/h (0 Bft)
13.05.2013 02:30 8,6 C 6,8 C 88 % 1015,0 hPa 0,0 l/m 0 min 2 min 0,0 UV-I 0 W/m 0,0 km/h (0 Bft)
13.05.2013 02:32 8,6 C 6,8 C 88 % 1015,0 hPa 0,0 l/m 0 min 2 min 0,0 UV-I 0 W/m 2,6 km/h (1 Bft)
13.05.2013 02:34 8,6 C 6,8 C 89 % 1015,0 hPa 0,0 l/m 0 min 2 min 0,0 UV-I 0 W/m 5,1 km/h (1 Bft)
13.05.2013 02:36 8,6 C 6,8 C 89 % 1015,0 hPa 0,0 l/m 0 min 2 min 0,0 UV-I 0 W/m 2,6 km/h (1 Bft)
13.05.2013 02:38 8,5 C 6,8 C 89 % 1015,0 hPa 0,0 l/m 0 min 2 min 0,0 UV-I 0 W/m 5,1 km/h (1 Bft)
13.05.2013 02:40 8,5 C 6,8 C 89 % 1014,9 hPa 0,0 l/m 0 min 2 min 0,0 UV-I 0 W/m 0,0 km/h (0 Bft)
13.05.2013 02:42 8,4 C 6,8 C 89 % 1014,9 hPa 0,2 l/m 0 min 2 min 0,0 UV-I 0 W/m 2,6 km/h (1 Bft)
13.05.2013 02:44 8,4 C 6,8 C 89 % 1014,9 hPa 0,0 l/m 0 min 2 min 0,0 UV-I 0 W/m 0,0 km/h (0 Bft)
13.05.2013 02:46 8,4 C 6,8 C 90 % 1014,9 hPa 0,0 l/m 0 min 2 min 0,0 UV-I 0 W/m 0,0 km/h (0 Bft)
13.05.2013 02:48 8,4 C 6,8 C 90 % 1014,8 hPa 0,0 l/m 0 min 2 min 0,0 UV-I 0 W/m 0,0 km/h (0 Bft)
13.05.2013 02:50 8,4 C 6,8 C 90 % 1014,8 hPa 0,0 l/m 0 min 2 min 0,0 UV-I 0 W/m 2,6 km/h (1 Bft)
13.05.2013 02:52 8,4 C 6,8 C 90 % 1014,8 hPa 0,0 l/m 0 min 2 min 0,0 UV-I 0 W/m 15,4 km/h (3 Bft)
13.05.2013 02:54 8,4 C 6,8 C 90 % 1014,8 hPa 0,2 l/m 0 min 2 min 0,0 UV-I 0 W/m 5,1 km/h (1 Bft)
13.05.2013 02:56 8,4 C 6,8 C 91 % 1014,7 hPa 0,0 l/m 0 min 2 min 0,0 UV-I 0 W/m 7,7 km/h (2 Bft)
13.05.2013 02:58 8,4 C 6,8 C 91 % 1014,7 hPa 0,0 l/m 0 min 2 min 0,0 UV-I 0 W/m 10,3 km/h (2 Bft)
13.05.2013 03:00 8,4 C 6,8 C 91 % 1014,7 hPa 0,0 l/m 0 min 2 min 0,0 UV-I 0 W/m 0,0 km/h (0 Bft)
13.05.2013 03:02 8,4 C 6,8 C 91 % 1014,7 hPa 0,0 l/m 0 min 2 min 0,0 UV-I 0 W/m 2,6 km/h (1 Bft)
13.05.2013 03:04 8,3 C 6,8 C 91 % 1014,7 hPa 0,0 l/m 0 min 2 min 0,0 UV-I 0 W/m 12,9 km/h (3 Bft)
13.05.2013 03:06 8,3 C 6,8 C 91 % 1014,6 hPa 0,0 l/m 0 min 2 min 0,0 UV-I 0 W/m 7,7 km/h (2 Bft)
13.05.2013 03:08 8,3 C 6,8 C 91 % 1014,6 hPa 0,0 l/m 0 min 2 min 0,0 UV-I 0 W/m 12,9 km/h (3 Bft)
13.05.2013 03:10 8,3 C 6,8 C 92 % 1014,6 hPa 0,0 l/m 0 min 2 min 0,0 UV-I 0 W/m 15,4 km/h (3 Bft)
13.05.2013 03:12 8,3 C 6,8 C 92 % 1014,6 hPa 0,0 l/m 0 min 2 min 0,0 UV-I 0 W/m 12,9 km/h (3 Bft)
13.05.2013 03:14 8,3 C 6,8 C 92 % 1014,6 hPa 0,0 l/m 0 min 2 min 0,0 UV-I 0 W/m 0,0 km/h (0 Bft)
13.05.2013 03:16 8,3 C 6,8 C 92 % 1014,5 hPa 0,2 l/m 0 min 2 min 0,0 UV-I 0 W/m 12,9 km/h (3 Bft)
13.05.2013 03:18 8,3 C 6,8 C 92 % 1014,5 hPa 0,0 l/m 0 min 2 min 0,0 UV-I 0 W/m 0,0 km/h (0 Bft)
13.05.2013 03:20 8,3 C 6,8 C 92 % 1014,5 hPa 0,0 l/m 0 min 2 min 0,0 UV-I 0 W/m 0,0 km/h (0 Bft)
13.05.2013 03:22 8,3 C 6,8 C 92 % 1014,5 hPa 0,0 l/m 0 min 2 min 0,0 UV-I 0 W/m 5,1 km/h (1 Bft)
13.05.2013 03:24 8,3 C 6,8 C 92 % 1014,5 hPa 0,2 l/m 0 min 2 min 0,0 UV-I 0 W/m 7,7 km/h (2 Bft)
13.05.2013 03:26 8,2 C 6,8 C 92 % 1014,5 hPa 0,0 l/m 0 min 2 min 0,0 UV-I 0 W/m 0,0 km/h (0 Bft)
13.05.2013 03:28 8,3 C 6,8 C 93 % 1014,4 hPa 0,0 l/m 0 min 2 min 0,0 UV-I 0 W/m 5,1 km/h (1 Bft)
13.05.2013 03:30 8,2 C 6,8 C 93 % 1014,4 hPa 0,0 l/m 0 min 2 min 0,0 UV-I 0 W/m 5,1 km/h (1 Bft)
13.05.2013 03:32 8,2 C 6,8 C 93 % 1014,3 hPa 0,0 l/m 0 min 2 min 0,0 UV-I 0 W/m 15,4 km/h (3 Bft)
13.05.2013 03:34 8,2 C 6,8 C 93 % 1014,3 hPa 0,0 l/m 0 min 2 min 0,0 UV-I 0 W/m 10,3 km/h (2 Bft)
13.05.2013 03:36 8,2 C 6,8 C 93 % 1014,2 hPa 0,2 l/m 0 min 2 min 0,0 UV-I 0 W/m 7,7 km/h (2 Bft)
13.05.2013 03:38 8,2 C 6,8 C 93 % 1014,2 hPa 0,0 l/m 0 min 2 min 0,0 UV-I 0 W/m 2,6 km/h (1 Bft)
13.05.2013 03:40 8,2 C 6,8 C 93 % 1014,2 hPa 0,0 l/m 0 min 2 min 0,0 UV-I 0 W/m 7,7 km/h (2 Bft)
13.05.2013 03:42 8,2 C 6,8 C 93 % 1014,2 hPa 0,0 l/m 0 min 2 min 0,0 UV-I 0 W/m 2,6 km/h (1 Bft)
13.05.2013 03:44 8,2 C 6,8 C 93 % 1014,2 hPa 0,0 l/m 0 min 2 min 0,0 UV-I 0 W/m 12,9 km/h (3 Bft)
13.05.2013 03:46 8,2 C 6,8 C 93 % 1014,1 hPa 0,2 l/m 0 min 2 min 0,0 UV-I 0 W/m 0,0 km/h (0 Bft)
13.05.2013 03:48 8,2 C 7,3 C 94 % 1014,1 hPa 0,0 l/m 0 min 2 min 0,0 UV-I 0 W/m 10,3 km/h (2 Bft)
13.05.2013 03:50 8,2 C 6,8 C 94 % 1014,0 hPa 0,0 l/m 0 min 2 min 0,0 UV-I 0 W/m 7,7 km/h (2 Bft)
13.05.2013 03:52 8,2 C 6,8 C 94 % 1014,1 hPa 0,0 l/m 0 min 2 min 0,0 UV-I 0 W/m 5,1 km/h (1 Bft)
13.05.2013 03:54 8,2 C 6,8 C 94 % 1014,0 hPa 0,0 l/m 0 min 2 min 0,0 UV-I 0 W/m 5,1 km/h (1 Bft)
13.05.2013 03:56 8,2 C 6,8 C 94 % 1014,0 hPa 0,0 l/m 0 min 2 min 0,0 UV-I 0 W/m 7,7 km/h (2 Bft)
13.05.2013 03:58 8,2 C 7,3 C 94 % 1014,0 hPa 0,0 l/m 0 min 2 min 0,0 UV-I 0 W/m 7,7 km/h (2 Bft)
13.05.2013 04:00 8,2 C 6,8 C 94 % 1014,0 hPa 0,0 l/m 0 min 2 min 0,0 UV-I 0 W/m 12,9 km/h (3 Bft)
13.05.2013 04:05 8,2 C 6,8 C 95 % 1013,7 hPa 0,0 l/m 0 min 2 min 0,0 UV-I 0 W/m 5,1 km/h (1 Bft)
13.05.2013 04:06 8,2 C 6,8 C 95 % 1013,7 hPa 0,0 l/m 0 min 1 min 0,0 UV-I 0 W/m 0,0 km/h (0 Bft)
13.05.2013 04:08 8,2 C 7,3 C 95 % 1013,8 hPa 0,0 l/m 0 min 2 min 0,0 UV-I 0 W/m 2,6 km/h (1 Bft)
13.05.2013 04:10 8,2 C 7,3 C 95 % 1013,7 hPa 0,0 l/m 0 min 2 min 0,0 UV-I 0 W/m 5,1 km/h (1 Bft)
13.05.2013 04:12 8,2 C 7,3 C 95 % 1013,7 hPa 0,2 l/m 0 min 2 min 0,0 UV-I 0 W/m 10,3 km/h (2 Bft)
13.05.2013 04:14 8,2 C 7,3 C 95 % 1013,7 hPa 0,0 l/m 0 min 2 min 0,0 UV-I 0 W/m 12,9 km/h (3 Bft)
13.05.2013 04:16 8,2 C 7,3 C 95 % 1013,6 hPa 0,0 l/m 0 min 2 min 0,0 UV-I 0 W/m 12,9 km/h (3 Bft)
13.05.2013 04:18 8,2 C 7,3 C 95 % 1013,6 hPa 0,0 l/m 0 min 2 min 0,0 UV-I 0 W/m 7,7 km/h (2 Bft)
13.05.2013 04:20 8,2 C 7,3 C 95 % 1013,5 hPa 0,0 l/m 0 min 2 min 0,0 UV-I 0 W/m 10,3 km/h (2 Bft)
13.05.2013 04:22 8,2 C 7,3 C 95 % 1013,5 hPa 0,0 l/m 0 min 2 min 0,0 UV-I 0 W/m 7,7 km/h (2 Bft)
13.05.2013 04:24 8,2 C 7,3 C 95 % 1013,5 hPa 0,0 l/m 0 min 2 min 0,0 UV-I 0 W/m 12,9 km/h (3 Bft)
13.05.2013 04:26 8,2 C 7,3 C 95 % 1013,4 hPa 0,0 l/m 0 min 2 min 0,0 UV-I 0 W/m 12,9 km/h (3 Bft)
13.05.2013 04:28 8,2 C 7,3 C 95 % 1013,4 hPa 0,0 l/m 0 min 2 min 0,0 UV-I 0 W/m 10,3 km/h (2 Bft)
13.05.2013 04:30 8,3 C 7,3 C 95 % 1013,4 hPa 0,0 l/m 0 min 2 min 0,0 UV-I 0 W/m 2,6 km/h (1 Bft)
13.05.2013 04:32 8,3 C 7,3 C 95 % 1013,4 hPa 0,2 l/m 0 min 2 min 0,0 UV-I 0 W/m 15,4 km/h (3 Bft)
13.05.2013 04:34 8,3 C 7,3 C 95 % 1013,4 hPa 0,0 l/m 0 min 2 min 0,0 UV-I 0 W/m 2,6 km/h (1 Bft)
13.05.2013 04:36 8,3 C 7,3 C 96 % 1013,3 hPa 0,0 l/m 0 min 2 min 0,0 UV-I 0 W/m 7,7 km/h (2 Bft)
13.05.2013 04:38 8,3 C 7,3 C 96 % 1013,3 hPa 0,0 l/m 0 min 2 min 0,0 UV-I 0 W/m 12,9 km/h (3 Bft)
13.05.2013 04:40 8,3 C 7,3 C 96 % 1013,3 hPa 0,0 l/m 0 min 0 min 0,0 UV-I 0 W/m 12,9 km/h (3 Bft)
13.05.2013 04:42 8,3 C 7,3 C 96 % 1013,3 hPa 0,0 l/m 0 min 0 min 0,0 UV-I 0 W/m 0,0 km/h (0 Bft)
13.05.2013 04:44 8,3 C 7,3 C 96 % 1013,3 hPa 0,0 l/m 0 min 0 min 0,0 UV-I 0 W/m 2,6 km/h (1 Bft)
13.05.2013 04:46 8,3 C 7,3 C 96 % 1013,2 hPa 0,0 l/m 0 min 0 min 0,0 UV-I 0 W/m 12,9 km/h (3 Bft)
13.05.2013 04:48 8,3 C 7,3 C 96 % 1013,3 hPa 0,0 l/m 0 min 0 min 0,0 UV-I 0 W/m 5,1 km/h (1 Bft)
13.05.2013 04:50 8,3 C 7,3 C 96 % 1013,2 hPa 0,0 l/m 0 min 0 min 0,0 UV-I 0 W/m 7,7 km/h (2 Bft)
13.05.2013 04:52 8,3 C 7,3 C 96 % 1013,2 hPa 0,0 l/m 0 min 0 min 0,0 UV-I 0 W/m 15,4 km/h (3 Bft)
13.05.2013 04:54 8,3 C 7,3 C 96 % 1013,2 hPa 0,0 l/m 0 min 0 min 0,0 UV-I 0 W/m 5,1 km/h (1 Bft)
13.05.2013 04:56 8,3 C 7,3 C 96 % 1013,2 hPa 0,0 l/m 0 min 2 min 0,0 UV-I 0 W/m 15,4 km/h (3 Bft)
13.05.2013 04:58 8,3 C 7,3 C 96 % 1013,1 hPa 0,0 l/m 0 min 2 min 0,0 UV-I 0 W/m 2,6 km/h (1 Bft)
13.05.2013 05:00 8,3 C 7,3 C 96 % 1013,1 hPa 0,0 l/m 0 min 2 min 0,0 UV-I 0 W/m 12,9 km/h (3 Bft)
13.05.2013 05:02 8,3 C 7,3 C 96 % 1013,1 hPa 0,0 l/m 0 min 2 min 0,0 UV-I 0 W/m 7,7 km/h (2 Bft)
13.05.2013 05:04 8,3 C 7,3 C 96 % 1013,1 hPa 0,0 l/m 0 min 0 min 0,0 UV-I 0 W/m 7,7 km/h (2 Bft)
13.05.2013 05:06 8,3 C 7,3 C 96 % 1013,1 hPa 0,0 l/m 0 min 0 min 0,0 UV-I 0 W/m 7,7 km/h (2 Bft)
13.05.2013 05:08 8,3 C 7,3 C 96 % 1013,0 hPa 0,0 l/m 0 min 0 min 0,0 UV-I 0 W/m 12,9 km/h (3 Bft)
13.05.2013 05:10 8,4 C 7,3 C 96 % 1013,1 hPa 0,0 l/m 0 min 0 min 0,0 UV-I 0 W/m 7,7 km/h (2 Bft)
13.05.2013 05:12 8,4 C 7,3 C 96 % 1013,1 hPa 0,0 l/m 0 min 0 min 0,0 UV-I 0 W/m 5,1 km/h (1 Bft)
13.05.2013 05:14 8,4 C 7,3 C 96 % 1013,1 hPa 0,0 l/m 0 min 0 min 0,0 UV-I 0 W/m 5,1 km/h (1 Bft)
13.05.2013 05:16 8,4 C 7,3 C 96 % 1013,1 hPa 0,0 l/m 0 min 0 min 0,0 UV-I 0 W/m 5,1 km/h (1 Bft)
13.05.2013 05:18 8,4 C 7,3 C 96 % 1013,0 hPa 0,0 l/m 0 min 0 min 0,0 UV-I 0 W/m 10,3 km/h (2 Bft)
13.05.2013 05:20 8,4 C 7,3 C 96 % 1013,0 hPa 0,0 l/m 0 min 0 min 0,0 UV-I 0 W/m 15,4 km/h (3 Bft)
13.05.2013 05:22 8,4 C 7,3 C 97 % 1013,0 hPa 0,0 l/m 0 min 0 min 0,0 UV-I 0 W/m 0,0 km/h (0 Bft)
13.05.2013 05:24 8,4 C 7,3 C 97 % 1013,0 hPa 0,0 l/m 0 min 0 min 0,0 UV-I 0 W/m 7,7 km/h (2 Bft)
13.05.2013 05:26 8,4 C 7,3 C 97 % 1013,0 hPa 0,0 l/m 0 min 0 min 0,0 UV-I 0 W/m 20,6 km/h (4 Bft)
13.05.2013 05:28 8,4 C 7,3 C 97 % 1012,9 hPa 0,0 l/m 0 min 0 min 0,0 UV-I 0 W/m 7,7 km/h (2 Bft)
13.05.2013 05:30 8,4 C 7,3 C 97 % 1012,9 hPa 0,0 l/m 0 min 0 min 0,0 UV-I 0 W/m 7,7 km/h (2 Bft)
13.05.2013 05:32 8,5 C 7,3 C 97 % 1012,9 hPa 0,0 l/m 0 min 0 min 0,0 UV-I 0 W/m 10,3 km/h (2 Bft)
13.05.2013 05:34 8,5 C 7,3 C 97 % 1012,9 hPa 0,0 l/m 0 min 0 min 0,0 UV-I 0 W/m 5,1 km/h (1 Bft)
13.05.2013 05:36 8,5 C 7,9 C 97 % 1012,9 hPa 0,0 l/m 0 min 0 min 0,0 UV-I 0 W/m 5,1 km/h (1 Bft)
13.05.2013 05:38 8,6 C 7,9 C 97 % 1012,9 hPa 0,0 l/m 0 min 0 min 0,0 UV-I 0 W/m 7,7 km/h (2 Bft)
13.05.2013 05:40 8,6 C 7,9 C 97 % 1012,8 hPa 0,0 l/m 0 min 0 min 0,0 UV-I 0 W/m 12,9 km/h (3 Bft)
13.05.2013 05:42 8,6 C 7,9 C 97 % 1012,9 hPa 0,0 l/m 0 min 0 min 0,0 UV-I 0 W/m 2,6 km/h (1 Bft)
13.05.2013 05:44 8,6 C 7,9 C 97 % 1012,8 hPa 0,0 l/m 0 min 0 min 0,0 UV-I 0 W/m 12,9 km/h (3 Bft)
13.05.2013 05:46 8,6 C 7,9 C 97 % 1012,8 hPa 0,0 l/m 0 min 0 min 0,0 UV-I 0 W/m 18,0 km/h (3 Bft)
13.05.2013 05:48 8,6 C 7,9 C 97 % 1012,9 hPa 0,0 l/m 0 min 0 min 0,0 UV-I 0 W/m 2,6 km/h (1 Bft)
13.05.2013 05:50 8,6 C 7,9 C 97 % 1012,8 hPa 0,0 l/m 0 min 0 min 0,0 UV-I 0 W/m 12,9 km/h (3 Bft)
13.05.2013 05:52 8,6 C 7,9 C 97 % 1012,9 hPa 0,0 l/m 0 min 0 min 0,0 UV-I 0 W/m 2,6 km/h (1 Bft)
13.05.2013 05:54 8,6 C 7,9 C 97 % 1012,8 hPa 0,0 l/m 0 min 0 min 0,0 UV-I 0 W/m 10,3 km/h (2 Bft)
13.05.2013 05:56 8,7 C 7,9 C 97 % 1012,9 hPa 0,0 l/m 0 min 0 min 0,0 UV-I 0 W/m 10,3 km/h (2 Bft)
13.05.2013 05:58 8,7 C 7,9 C 97 % 1012,8 hPa 0,0 l/m 0 min 0 min 0,0 UV-I 0 W/m 7,7 km/h (2 Bft)
13.05.2013 06:00 8,7 C 7,9 C 97 % 1012,9 hPa 0,0 l/m 0 min 0 min 0,0 UV-I 0 W/m 7,7 km/h (2 Bft)
13.05.2013 06:02 8,7 C 7,9 C 97 % 1012,8 hPa 0,0 l/m 0 min 0 min 0,0 UV-I 0 W/m 12,9 km/h (3 Bft)
13.05.2013 06:04 8,7 C 7,9 C 97 % 1012,9 hPa 0,2 l/m 0 min 0 min 0,0 UV-I 0 W/m 7,7 km/h (2 Bft)
13.05.2013 06:06 8,7 C 7,9 C 97 % 1012,9 hPa 0,0 l/m 0 min 0 min 0,0 UV-I 5 W/m 2,6 km/h (1 Bft)
13.05.2013 06:08 8,7 C 7,9 C 97 % 1012,8 hPa 0,0 l/m 0 min 0 min 0,0 UV-I 5 W/m 10,3 km/h (2 Bft)
13.05.2013 06:10 8,7 C 7,9 C 97 % 1012,8 hPa 0,0 l/m 0 min 0 min 0,0 UV-I 5 W/m 10,3 km/h (2 Bft)
13.05.2013 06:12 8,7 C 7,9 C 97 % 1012,8 hPa 0,0 l/m 0 min 0 min 0,0 UV-I 5 W/m 5,1 km/h (1 Bft)
13.05.2013 06:14 8,8 C 7,9 C 97 % 1012,8 hPa 0,0 l/m 0 min 0 min 0,0 UV-I 7 W/m 12,9 km/h (3 Bft)
13.05.2013 06:16 8,8 C 7,9 C 97 % 1012,7 hPa 0,0 l/m 0 min 0 min 0,0 UV-I 7 W/m 7,7 km/h (2 Bft)
13.05.2013 06:18 8,8 C 7,9 C 97 % 1012,8 hPa 0,0 l/m 0 min 0 min 0,0 UV-I 9 W/m 15,4 km/h (3 Bft)
13.05.2013 06:20 8,8 C 7,9 C 97 % 1012,7 hPa 0,0 l/m 0 min 0 min 0,0 UV-I 9 W/m 0,0 km/h (0 Bft)
13.05.2013 06:22 8,8 C 7,9 C 97 % 1012,8 hPa 0,0 l/m 0 min 0 min 0,0 UV-I 9 W/m 7,7 km/h (2 Bft)
13.05.2013 06:24 8,8 C 7,9 C 97 % 1012,8 hPa 0,0 l/m 0 min 0 min 0,0 UV-I 9 W/m 7,7 km/h (2 Bft)
13.05.2013 06:26 8,8 C 7,9 C 97 % 1012,8 hPa 0,0 l/m 0 min 0 min 0,0 UV-I 9 W/m 15,4 km/h (3 Bft)
13.05.2013 06:28 8,8 C 7,9 C 97 % 1012,7 hPa 0,0 l/m 0 min 0 min 0,0 UV-I 9 W/m 10,3 km/h (2 Bft)
13.05.2013 06:30 8,9 C 7,9 C 97 % 1012,7 hPa 0,0 l/m 0 min 0 min 0,0 UV-I 9 W/m 0,0 km/h (0 Bft)
13.05.2013 06:32 8,9 C 7,9 C 97 % 1012,6 hPa 0,0 l/m 0 min 0 min 0,0 UV-I 9 W/m 10,3 km/h (2 Bft)
13.05.2013 06:34 8,9 C 7,9 C 98 % 1012,6 hPa 0,0 l/m 0 min 0 min 0,0 UV-I 11 W/m 7,7 km/h (2 Bft)
13.05.2013 06:36 8,9 C 7,9 C 98 % 1012,6 hPa 0,0 l/m 0 min 0 min 0,0 UV-I 11 W/m 20,6 km/h (4 Bft)
13.05.2013 06:38 8,9 C 7,9 C 98 % 1012,7 hPa 0,0 l/m 0 min 0 min 0,0 UV-I 12 W/m 0,0 km/h (0 Bft)
13.05.2013 06:40 8,9 C 8,4 C 98 % 1012,6 hPa 0,0 l/m 0 min 2 min 0,0 UV-I 12 W/m 12,9 km/h (3 Bft)
13.05.2013 06:42 8,9 C 8,4 C 98 % 1012,7 hPa 0,0 l/m 0 min 2 min 0,0 UV-I 12 W/m 7,7 km/h (2 Bft)
13.05.2013 06:44 9,0 C 8,4 C 98 % 1012,7 hPa 0,0 l/m 0 min 2 min 0,0 UV-I 12 W/m 10,3 km/h (2 Bft)
13.05.2013 06:46 9,0 C 8,4 C 98 % 1012,7 hPa 0,0 l/m 0 min 2 min 0,0 UV-I 14 W/m 0,0 km/h (0 Bft)
13.05.2013 06:48 9,0 C 8,4 C 98 % 1012,6 hPa 0,0 l/m 0 min 2 min 0,0 UV-I 18 W/m 12,9 km/h (3 Bft)
13.05.2013 06:50 9,1 C 8,4 C 98 % 1012,6 hPa 0,0 l/m 0 min 2 min 0,0 UV-I 19 W/m 7,7 km/h (2 Bft)
13.05.2013 06:52 9,1 C 8,4 C 98 % 1012,6 hPa 0,0 l/m 0 min 2 min 0,0 UV-I 18 W/m 15,4 km/h (3 Bft)
13.05.2013 06:54 9,1 C 8,4 C 98 % 1012,7 hPa 0,0 l/m 0 min 0 min 0,0 UV-I 19 W/m 5,1 km/h (1 Bft)
13.05.2013 06:56 9,1 C 8,4 C 98 % 1012,7 hPa 0,0 l/m 0 min 0 min 0,0 UV-I 19 W/m 18,0 km/h (3 Bft)
13.05.2013 06:58 9,1 C 8,4 C 98 % 1012,6 hPa 0,2 l/m 0 min 0 min 0,0 UV-I 21 W/m 5,1 km/h (1 Bft)
13.05.2013 07:00 9,1 C 8,4 C 98 % 1012,7 hPa 0,0 l/m 0 min 0 min 0,0 UV-I 25 W/m 7,7 km/h (2 Bft)
13.05.2013 07:02 9,2 C 8,4 C 98 % 1012,7 hPa 0,0 l/m 0 min 2 min 0,0 UV-I 23 W/m 5,1 km/h (1 Bft)
13.05.2013 07:04 9,2 C 8,4 C 98 % 1012,6 hPa 0,0 l/m 0 min 0 min 0,0 UV-I 21 W/m 10,3 km/h (2 Bft)
13.05.2013 07:06 9,2 C 8,4 C 98 % 1012,6 hPa 0,0 l/m 0 min 0 min 0,0 UV-I 23 W/m 10,3 km/h (2 Bft)
13.05.2013 07:08 9,2 C 8,4 C 98 % 1012,6 hPa 0,0 l/m 0 min 0 min 0,0 UV-I 26 W/m 7,7 km/h (2 Bft)
13.05.2013 07:10 9,2 C 8,4 C 98 % 1012,6 hPa 0,0 l/m 0 min 0 min 0,0 UV-I 26 W/m 7,7 km/h (2 Bft)
13.05.2013 07:12 9,3 C 8,4 C 98 % 1012,6 hPa 0,0 l/m 0 min 0 min 0,0 UV-I 28 W/m 15,4 km/h (3 Bft)
13.05.2013 07:14 9,3 C 8,4 C 98 % 1012,6 hPa 0,0 l/m 0 min 0 min 0,0 UV-I 28 W/m 5,1 km/h (1 Bft)
13.05.2013 07:16 9,3 C 8,4 C 98 % 1012,6 hPa 0,0 l/m 0 min 0 min 0,0 UV-I 33 W/m 2,6 km/h (1 Bft)
13.05.2013 07:18 9,3 C 8,4 C 98 % 1012,5 hPa 0,0 l/m 0 min 0 min 0,0 UV-I 28 W/m 5,1 km/h (1 Bft)
13.05.2013 07:20 9,3 C 8,4 C 98 % 1012,6 hPa 0,0 l/m 0 min 0 min 0,0 UV-I 33 W/m 10,3 km/h (2 Bft)
13.05.2013 07:22 9,3 C 8,4 C 98 % 1012,6 hPa 0,0 l/m 0 min 0 min 0,0 UV-I 40 W/m 7,7 km/h (2 Bft)
13.05.2013 07:24 9,3 C 8,4 C 98 % 1012,6 hPa 0,0 l/m 0 min 0 min 0,0 UV-I 42 W/m 7,7 km/h (2 Bft)
13.05.2013 07:26 9,4 C 8,4 C 98 % 1012,6 hPa 0,0 l/m 0 min 0 min 0,0 UV-I 39 W/m 10,3 km/h (2 Bft)
13.05.2013 07:28 9,4 C 8,4 C 98 % 1012,7 hPa 0,0 l/m 0 min 0 min 0,0 UV-I 33 W/m 20,6 km/h (4 Bft)
13.05.2013 07:30 9,4 C 8,4 C 98 % 1012,7 hPa 0,0 l/m 0 min 0 min 0,0 UV-I 30 W/m 7,7 km/h (2 Bft)
13.05.2013 07:32 9,4 C 8,4 C 98 % 1012,6 hPa 0,0 l/m 0 min 0 min 0,0 UV-I 33 W/m 10,3 km/h (2 Bft)
13.05.2013 07:34 9,4 C 8,4 C 98 % 1012,6 hPa 0,0 l/m 0 min 0 min 0,0 UV-I 26 W/m 15,4 km/h (3 Bft)
13.05.2013 07:36 9,4 C 8,4 C 98 % 1012,7 hPa 0,0 l/m 0 min 0 min 0,0 UV-I 26 W/m 15,4 km/h (3 Bft)
13.05.2013 07:38 9,4 C 8,4 C 98 % 1012,7 hPa 0,0 l/m 0 min 0 min 0,0 UV-I 26 W/m 7,7 km/h (2 Bft)
13.05.2013 07:40 9,5 C 8,4 C 98 % 1012,7 hPa 0,0 l/m 0 min 0 min 0,0 UV-I 28 W/m 7,7 km/h (2 Bft)
13.05.2013 07:42 9,5 C 8,4 C 98 % 1012,6 hPa 0,0 l/m 0 min 0 min 0,0 UV-I 26 W/m 10,3 km/h (2 Bft)
13.05.2013 07:44 9,5 C 8,4 C 98 % 1012,6 hPa 0,0 l/m 0 min 0 min 0,0 UV-I 25 W/m 7,7 km/h (2 Bft)
13.05.2013 07:46 9,5 C 8,4 C 98 % 1012,7 hPa 0,0 l/m 0 min 0 min 0,0 UV-I 28 W/m 7,7 km/h (2 Bft)
13.05.2013 07:48 9,6 C 8,4 C 98 % 1012,5 hPa 0,0 l/m 0 min 0 min 0,0 UV-I 26 W/m 10,3 km/h (2 Bft)
13.05.2013 07:50 9,6 C 9,0 C 98 % 1012,6 hPa 0,0 l/m 0 min 0 min 0,0 UV-I 30 W/m 12,9 km/h (3 Bft)
13.05.2013 07:52 9,6 C 9,0 C 98 % 1012,6 hPa 0,0 l/m 0 min 0 min 0,0 UV-I 30 W/m 7,7 km/h (2 Bft)
13.05.2013 07:54 9,6 C 9,0 C 98 % 1012,6 hPa 0,0 l/m 0 min 0 min 0,0 UV-I 28 W/m 0,0 km/h (0 Bft)
13.05.2013 07:56 9,6 C 9,0 C 98 % 1012,6 hPa 0,0 l/m 0 min 0 min 0,0 UV-I 35 W/m 12,9 km/h (3 Bft)
13.05.2013 07:58 9,6 C 9,0 C 98 % 1012,6 hPa 0,0 l/m 0 min 0 min 0,0 UV-I 37 W/m 10,3 km/h (2 Bft)
13.05.2013 08:00 9,6 C 9,0 C 98 % 1012,6 hPa 0,0 l/m 0 min 0 min 0,0 UV-I 44 W/m 10,3 km/h (2 Bft)
13.05.2013 08:02 9,6 C 9,0 C 98 % 1012,6 hPa 0,0 l/m 0 min 0 min 0,0 UV-I 53 W/m 7,7 km/h (2 Bft)
13.05.2013 08:04 9,6 C 9,0 C 98 % 1012,6 hPa 0,0 l/m 0 min 0 min 0,0 UV-I 56 W/m 12,9 km/h (3 Bft)
13.05.2013 08:06 9,7 C 9,0 C 98 % 1012,6 hPa 0,0 l/m 0 min 0 min 0,0 UV-I 56 W/m 5,1 km/h (1 Bft)
13.05.2013 08:08 9,7 C 9,0 C 98 % 1012,6 hPa 0,0 l/m 0 min 0 min 0,0 UV-I 53 W/m 5,1 km/h (1 Bft)
13.05.2013 08:10 9,7 C 9,0 C 98 % 1012,6 hPa 0,0 l/m 0 min 0 min 0,0 UV-I 54 W/m 10,3 km/h (2 Bft)
13.05.2013 08:12 9,7 C 9,0 C 98 % 1012,6 hPa 0,0 l/m 0 min 0 min 0,0 UV-I 51 W/m 5,1 km/h (1 Bft)
13.05.2013 08:14 9,7 C 9,0 C 98 % 1012,7 hPa 0,0 l/m 0 min 0 min 0,0 UV-I 47 W/m 10,3 km/h (2 Bft)
13.05.2013 08:16 9,8 C 9,0 C 98 % 1012,6 hPa 0,0 l/m 0 min 2 min 0,0 UV-I 56 W/m 12,9 km/h (3 Bft)
13.05.2013 08:18 9,8 C 9,0 C 98 % 1012,7 hPa 0,0 l/m 0 min 2 min 0,0 UV-I 56 W/m 10,3 km/h (2 Bft)
13.05.2013 08:20 9,8 C 9,0 C 98 % 1012,6 hPa 0,0 l/m 0 min 0 min 0,0 UV-I 58 W/m 10,3 km/h (2 Bft)
13.05.2013 08:22 9,8 C 9,0 C 98 % 1012,6 hPa 0,0 l/m 0 min 0 min 0,0 UV-I 60 W/m 15,4 km/h (3 Bft)
13.05.2013 08:24 9,8 C 9,0 C 98 % 1012,6 hPa 0,0 l/m 0 min 0 min 0,0 UV-I 56 W/m 0,0 km/h (0 Bft)
13.05.2013 08:26 9,8 C 9,6 C 98 % 1012,7 hPa 0,0 l/m 0 min 0 min 0,0 UV-I 60 W/m 5,1 km/h (1 Bft)
13.05.2013 08:28 9,9 C 9,0 C 98 % 1012,7 hPa 0,0 l/m 0 min 0 min 0,0 UV-I 67 W/m 18,0 km/h (3 Bft)
13.05.2013 08:30 9,9 C 9,6 C 98 % 1012,6 hPa 0,0 l/m 0 min 0 min 0,0 UV-I 70 W/m 10,3 km/h (2 Bft)
13.05.2013 08:32 9,9 C 9,6 C 98 % 1012,7 hPa 0,0 l/m 0 min 0 min 0,0 UV-I 63 W/m 2,6 km/h (1 Bft)
13.05.2013 08:34 9,9 C 9,6 C 98 % 1012,6 hPa 0,0 l/m 0 min 0 min 0,0 UV-I 81 W/m 2,6 km/h (1 Bft)
13.05.2013 08:36 10,0 C 9,6 C 99 % 1012,7 hPa 0,0 l/m 0 min 0 min 0,0 UV-I 77 W/m 10,3 km/h (2 Bft)
13.05.2013 08:38 10,1 C 9,6 C 99 % 1012,7 hPa 0,0 l/m 0 min 0 min 0,0 UV-I 70 W/m 15,4 km/h (3 Bft)
13.05.2013 08:40 10,1 C 9,6 C 99 % 1012,7 hPa 0,0 l/m 0 min 0 min 0,0 UV-I 77 W/m 12,9 km/h (3 Bft)
13.05.2013 08:42 10,1 C 9,6 C 99 % 1012,7 hPa 0,0 l/m 0 min 0 min 0,0 UV-I 67 W/m 5,1 km/h (1 Bft)
13.05.2013 08:44 10,1 C 9,6 C 99 % 1012,7 hPa 0,0 l/m 0 min 0 min 0,0 UV-I 58 W/m 5,1 km/h (1 Bft)
13.05.2013 08:46 10,1 C 9,6 C 99 % 1012,7 hPa 0,0 l/m 0 min 0 min 0,0 UV-I 77 W/m 0,0 km/h (0 Bft)
13.05.2013 08:48 10,2 C 9,6 C 98 % 1012,8 hPa 0,0 l/m 0 min 0 min 0,0 UV-I 63 W/m 15,4 km/h (3 Bft)
13.05.2013 08:50 10,2 C 9,6 C 98 % 1012,8 hPa 0,0 l/m 0 min 0 min 0,0 UV-I 74 W/m 7,7 km/h (2 Bft)
13.05.2013 08:52 10,2 C 9,6 C 98 % 1012,8 hPa 0,0 l/m 0 min 0 min 0,0 UV-I 77 W/m 10,3 km/h (2 Bft)
13.05.2013 08:54 10,2 C 9,6 C 98 % 1012,8 hPa 0,0 l/m 0 min 0 min 0,0 UV-I 62 W/m 7,7 km/h (2 Bft)
13.05.2013 08:56 10,2 C 9,6 C 98 % 1012,8 hPa 0,0 l/m 0 min 0 min 0,0 UV-I 56 W/m 18,0 km/h (3 Bft)
13.05.2013 08:58 10,2 C 9,6 C 98 % 1012,8 hPa 0,0 l/m 0 min 0 min 0,0 UV-I 62 W/m 15,4 km/h (3 Bft)
13.05.2013 09:00 10,2 C 9,6 C 98 % 1012,8 hPa 0,0 l/m 0 min 0 min 0,0 UV-I 58 W/m 7,7 km/h (2 Bft)
13.05.2013 09:02 10,3 C 9,6 C 98 % 1012,8 hPa 0,0 l/m 0 min 0 min 0,0 UV-I 63 W/m 10,3 km/h (2 Bft)
13.05.2013 09:04 10,3 C 9,6 C 98 % 1012,8 hPa 0,0 l/m 0 min 0 min 0,0 UV-I 54 W/m 7,7 km/h (2 Bft)
13.05.2013 09:06 10,3 C 9,6 C 98 % 1012,9 hPa 0,0 l/m 0 min 0 min 0,0 UV-I 58 W/m 10,3 km/h (2 Bft)
13.05.2013 09:08 10,3 C 9,6 C 98 % 1012,9 hPa 0,0 l/m 0 min 0 min 0,0 UV-I 51 W/m 10,3 km/h (2 Bft)
13.05.2013 09:10 10,3 C 9,6 C 98 % 1012,9 hPa 0,0 l/m 0 min 0 min 0,0 UV-I 56 W/m 10,3 km/h (2 Bft)
13.05.2013 09:12 10,3 C 9,6 C 98 % 1012,9 hPa 0,0 l/m 0 min 0 min 0,0 UV-I 60 W/m 7,7 km/h (2 Bft)
13.05.2013 09:14 10,3 C 9,6 C 98 % 1012,8 hPa 0,0 l/m 0 min 0 min 0,0 UV-I 60 W/m 18,0 km/h (3 Bft)
13.05.2013 09:16 10,3 C 9,6 C 98 % 1012,8 hPa 0,0 l/m 0 min 0 min 0,0 UV-I 62 W/m 7,7 km/h (2 Bft)
13.05.2013 09:18 10,4 C 9,6 C 99 % 1012,8 hPa 0,0 l/m 0 min 0 min 0,0 UV-I 60 W/m 15,4 km/h (3 Bft)
13.05.2013 09:20 10,4 C 9,6 C 99 % 1012,8 hPa 0,0 l/m 0 min 0 min 0,0 UV-I 86 W/m 15,4 km/h (3 Bft)
13.05.2013 09:22 10,4 C 9,6 C 99 % 1012,7 hPa 0,0 l/m 0 min 0 min 0,0 UV-I 83 W/m 20,6 km/h (4 Bft)
13.05.2013 09:24 10,4 C 9,6 C 99 % 1012,8 hPa 0,0 l/m 0 min 0 min 0,0 UV-I 72 W/m 12,9 km/h (3 Bft)
13.05.2013 09:26 10,4 C 9,6 C 99 % 1012,8 hPa 0,0 l/m 0 min 0 min 0,0 UV-I 81 W/m 15,4 km/h (3 Bft)
13.05.2013 09:28 10,4 C 9,6 C 99 % 1012,8 hPa 0,0 l/m 0 min 0 min 0,0 UV-I 107 W/m 18,0 km/h (3 Bft)
13.05.2013 09:30 10,4 C 9,6 C 99 % 1012,8 hPa 0,0 l/m 0 min 0 min 0,0 UV-I 113 W/m 12,9 km/h (3 Bft)
13.05.2013 09:32 10,4 C 10,1 C 99 % 1012,9 hPa 0,0 l/m 0 min 0 min 0,0 UV-I 76 W/m 7,7 km/h (2 Bft)
13.05.2013 09:34 10,5 C 9,6 C 99 % 1012,8 hPa 0,0 l/m 0 min 0 min 0,0 UV-I 79 W/m 15,4 km/h (3 Bft)
13.05.2013 09:36 10,5 C 9,6 C 99 % 1012,8 hPa 0,0 l/m 0 min 0 min 0,0 UV-I 102 W/m 10,3 km/h (2 Bft)
13.05.2013 09:38 10,5 C 10,1 C 99 % 1012,9 hPa 0,0 l/m 0 min 0 min 0,0 UV-I 118 W/m 5,1 km/h (1 Bft)
13.05.2013 09:40 10,6 C 10,1 C 99 % 1012,9 hPa 0,0 l/m 0 min 0 min 0,0 UV-I 113 W/m 5,1 km/h (1 Bft)
13.05.2013 09:42 10,6 C 10,1 C 99 % 1012,9 hPa 0,0 l/m 0 min 0 min 0,0 UV-I 105 W/m 12,9 km/h (3 Bft)
13.05.2013 09:44 10,6 C 10,1 C 99 % 1012,9 hPa 0,0 l/m 0 min 0 min 0,0 UV-I 113 W/m 12,9 km/h (3 Bft)
13.05.2013 09:46 10,6 C 10,1 C 99 % 1012,9 hPa 0,0 l/m 0 min 0 min 0,0 UV-I 109 W/m 20,6 km/h (4 Bft)
13.05.2013 09:48 10,6 C 10,1 C 99 % 1012,9 hPa 0,0 l/m 0 min 0 min 0,0 UV-I 120 W/m 7,7 km/h (2 Bft)
13.05.2013 09:50 10,6 C 10,1 C 98 % 1012,9 hPa 0,0 l/m 0 min 0 min 0,0 UV-I 107 W/m 10,3 km/h (2 Bft)
13.05.2013 09:52 10,7 C 10,1 C 98 % 1012,9 hPa 0,0 l/m 0 min 0 min 0,0 UV-I 109 W/m 5,1 km/h (1 Bft)
13.05.2013 09:54 10,7 C 10,1 C 99 % 1012,9 hPa 0,0 l/m 0 min 0 min 0,0 UV-I 109 W/m 12,9 km/h (3 Bft)
13.05.2013 09:56 10,7 C 10,1 C 99 % 1013,0 hPa 0,0 l/m 0 min 0 min 0,0 UV-I 104 W/m 7,7 km/h (2 Bft)
13.05.2013 09:58 10,7 C 10,1 C 99 % 1013,0 hPa 0,0 l/m 0 min 0 min 0,0 UV-I 95 W/m 18,0 km/h (3 Bft)
13.05.2013 10:00 10,7 C 10,1 C 99 % 1013,0 hPa 0,0 l/m 0 min 0 min 0,0 UV-I 90 W/m 10,3 km/h (2 Bft)
13.05.2013 10:02 10,7 C 10,1 C 99 % 1012,9 hPa 0,0 l/m 0 min 0 min 0,0 UV-I 97 W/m 7,7 km/h (2 Bft)
13.05.2013 10:04 10,8 C 10,1 C 99 % 1012,9 hPa 0,0 l/m 0 min 0 min 0,0 UV-I 100 W/m 0,0 km/h (0 Bft)
13.05.2013 10:06 10,8 C 10,1 C 99 % 1012,9 hPa 0,0 l/m 0 min 0 min 0,0 UV-I 120 W/m 15,4 km/h (3 Bft)
13.05.2013 10:08 10,8 C 10,1 C 99 % 1012,9 hPa 0,0 l/m 0 min 0 min 0,0 UV-I 132 W/m 20,6 km/h (4 Bft)
13.05.2013 10:10 10,8 C 10,1 C 99 % 1012,9 hPa 0,0 l/m 0 min 0 min 0,0 UV-I 146 W/m 12,9 km/h (3 Bft)
13.05.2013 10:12 10,8 C 10,1 C 99 % 1013,0 hPa 0,0 l/m 0 min 0 min 0,0 UV-I 179 W/m 7,7 km/h (2 Bft)
13.05.2013 10:14 10,8 C 10,7 C 99 % 1013,0 hPa 0,0 l/m 0 min 0 min 0,5 UV-I 220 W/m 18,0 km/h (3 Bft)
13.05.2013 10:16 10,9 C 10,7 C 98 % 1013,0 hPa 0,0 l/m 0 min 0 min 0,0 UV-I 209 W/m 15,4 km/h (3 Bft)
13.05.2013 10:18 10,9 C 10,7 C 98 % 1012,9 hPa 0,0 l/m 0 min 0 min 0,0 UV-I 181 W/m 20,6 km/h (4 Bft)
13.05.2013 10:20 10,9 C 10,7 C 98 % 1012,9 hPa 0,0 l/m 0 min 2 min 0,0 UV-I 192 W/m 15,4 km/h (3 Bft)
13.05.2013 10:22 10,9 C 10,7 C 98 % 1012,9 hPa 0,0 l/m 0 min 0 min 0,0 UV-I 162 W/m 15,4 km/h (3 Bft)
13.05.2013 10:24 11,0 C 10,1 C 98 % 1013,0 hPa 0,0 l/m 0 min 0 min 0,0 UV-I 139 W/m 12,9 km/h (3 Bft)
13.05.2013 10:26 11,0 C 10,1 C 98 % 1012,9 hPa 0,0 l/m 0 min 0 min 0,0 UV-I 123 W/m 15,4 km/h (3 Bft)
13.05.2013 10:28 11,0 C 10,1 C 99 % 1012,9 hPa 0,0 l/m 0 min 0 min 0,0 UV-I 127 W/m 7,7 km/h (2 Bft)
13.05.2013 10:30 11,1 C 10,1 C 98 % 1012,9 hPa 0,0 l/m 0 min 0 min 0,0 UV-I 125 W/m 20,6 km/h (4 Bft)
13.05.2013 10:32 11,0 C 10,1 C 98 % 1012,9 hPa 0,0 l/m 0 min 2 min 0,0 UV-I 148 W/m 12,9 km/h (3 Bft)
13.05.2013 10:34 11,1 C 10,7 C 98 % 1012,9 hPa 0,0 l/m 0 min 2 min 0,0 UV-I 169 W/m 5,1 km/h (1 Bft)
13.05.2013 10:36 11,1 C 10,1 C 98 % 1012,9 hPa 0,0 l/m 0 min 2 min 0,0 UV-I 142 W/m 12,9 km/h (3 Bft)
13.05.2013 10:38 11,1 C 10,7 C 98 % 1012,9 hPa 0,0 l/m 0 min 0 min 0,0 UV-I 155 W/m 12,9 km/h (3 Bft)
13.05.2013 10:40 11,1 C 10,7 C 98 % 1012,9 hPa 0,0 l/m 0 min 0 min 0,0 UV-I 137 W/m 15,4 km/h (3 Bft)
13.05.2013 10:42 11,1 C 10,1 C 98 % 1013,0 hPa 0,0 l/m 0 min 2 min 0,0 UV-I 118 W/m 12,9 km/h (3 Bft)
13.05.2013 10:44 11,1 C 10,7 C 98 % 1012,9 hPa 0,0 l/m 0 min 0 min 0,0 UV-I 95 W/m 2,6 km/h (1 Bft)
13.05.2013 10:46 11,1 C 10,1 C 98 % 1013,0 hPa 0,0 l/m 0 min 2 min 0,0 UV-I 104 W/m 5,1 km/h (1 Bft)
13.05.2013 10:48 11,1 C 10,7 C 98 % 1012,9 hPa 0,0 l/m 0 min 2 min 0,0 UV-I 134 W/m 0,0 km/h (0 Bft)
13.05.2013 10:50 11,1 C 10,7 C 98 % 1012,9 hPa 0,0 l/m 0 min 2 min 0,0 UV-I 134 W/m 18,0 km/h (3 Bft)
13.05.2013 10:52 11,1 C 10,1 C 98 % 1012,9 hPa 0,0 l/m 0 min 2 min 0,0 UV-I 135 W/m 12,9 km/h (3 Bft)
13.05.2013 10:54 11,1 C 10,1 C 98 % 1012,9 hPa 0,0 l/m 0 min 0 min 0,0 UV-I 118 W/m 12,9 km/h (3 Bft)
13.05.2013 10:56 11,1 C 10,1 C 98 % 1012,9 hPa 0,0 l/m 0 min 0 min 0,0 UV-I 137 W/m 12,9 km/h (3 Bft)
13.05.2013 10:58 11,1 C 10,1 C 98 % 1012,9 hPa 0,0 l/m 0 min 0 min 0,0 UV-I 120 W/m 12,9 km/h (3 Bft)
13.05.2013 11:00 11,1 C 10,1 C 98 % 1013,0 hPa 0,0 l/m 0 min 0 min 0,0 UV-I 111 W/m 12,9 km/h (3 Bft)
13.05.2013 11:02 11,1 C 10,1 C 98 % 1012,9 hPa 0,0 l/m 0 min 0 min 0,0 UV-I 114 W/m 10,3 km/h (2 Bft)
13.05.2013 11:04 11,1 C 10,1 C 98 % 1012,9 hPa 0,0 l/m 0 min 0 min 0,0 UV-I 111 W/m 20,6 km/h (4 Bft)
13.05.2013 11:06 11,1 C 10,1 C 98 % 1012,9 hPa 0,0 l/m 0 min 0 min 0,0 UV-I 118 W/m 7,7 km/h (2 Bft)
13.05.2013 11:08 11,1 C 10,1 C 98 % 1012,9 hPa 0,0 l/m 0 min 0 min 0,0 UV-I 128 W/m 10,3 km/h (2 Bft)
13.05.2013 11:10 11,1 C 10,1 C 98 % 1012,9 hPa 0,0 l/m 0 min 0 min 0,0 UV-I 128 W/m 12,9 km/h (3 Bft)
13.05.2013 11:12 11,1 C 10,1 C 98 % 1012,9 hPa 0,0 l/m 0 min 0 min 0,0 UV-I 141 W/m 15,4 km/h (3 Bft)
13.05.2013 11:14 11,1 C 10,1 C 98 % 1012,9 hPa 0,0 l/m 0 min 0 min 0,0 UV-I 118 W/m 12,9 km/h (3 Bft)
13.05.2013 11:16 11,1 C 10,1 C 98 % 1013,0 hPa 0,0 l/m 0 min 0 min 0,0 UV-I 104 W/m 7,7 km/h (2 Bft)
13.05.2013 11:18 11,1 C 10,1 C 98 % 1012,9 hPa 0,0 l/m 0 min 0 min 0,0 UV-I 105 W/m 5,1 km/h (1 Bft)
13.05.2013 11:20 11,1 C 10,1 C 98 % 1013,0 hPa 0,0 l/m 0 min 0 min 0,0 UV-I 105 W/m 20,6 km/h (4 Bft)
13.05.2013 11:22 11,1 C 10,1 C 98 % 1012,9 hPa 0,0 l/m 0 min 0 min 0,0 UV-I 130 W/m 12,9 km/h (3 Bft)
13.05.2013 11:24 11,1 C 10,1 C 98 % 1012,9 hPa 0,0 l/m 0 min 0 min 0,0 UV-I 130 W/m 15,4 km/h (3 Bft)
13.05.2013 11:26 11,2 C 10,1 C 98 % 1013,0 hPa 0,0 l/m 0 min 0 min 0,0 UV-I 105 W/m 5,1 km/h (1 Bft)
13.05.2013 11:28 11,2 C 10,1 C 97 % 1013,0 hPa 0,0 l/m 0 min 0 min 0,0 UV-I 83 W/m 7,7 km/h (2 Bft)
13.05.2013 11:30 11,2 C 10,7 C 97 % 1013,1 hPa 0,0 l/m 0 min 0 min 0,0 UV-I 81 W/m 10,3 km/h (2 Bft)
13.05.2013 11:32 11,2 C 10,1 C 97 % 1013,1 hPa 0,0 l/m 0 min 0 min 0,0 UV-I 77 W/m 7,7 km/h (2 Bft)
13.05.2013 11:34 11,2 C 10,1 C 97 % 1013,2 hPa 0,0 l/m 0 min 0 min 0,0 UV-I 83 W/m 10,3 km/h (2 Bft)
13.05.2013 11:36 11,2 C 10,1 C 98 % 1013,0 hPa 0,0 l/m 0 min 0 min 0,0 UV-I 83 W/m 12,9 km/h (3 Bft)
13.05.2013 11:38 11,2 C 10,1 C 97 % 1013,0 hPa 0,0 l/m 0 min 0 min 0,0 UV-I 98 W/m 12,9 km/h (3 Bft)
13.05.2013 11:40 11,2 C 10,1 C 97 % 1013,1 hPa 0,0 l/m 0 min 2 min 0,0 UV-I 95 W/m 18,0 km/h (3 Bft)
13.05.2013 11:42 11,2 C 10,1 C 97 % 1013,1 hPa 0,0 l/m 0 min 2 min 0,0 UV-I 86 W/m 10,3 km/h (2 Bft)
13.05.2013 11:44 11,2 C 10,1 C 97 % 1013,1 hPa 0,0 l/m 0 min 2 min 0,0 UV-I 100 W/m 23,2 km/h (4 Bft)
13.05.2013 11:46 11,2 C 10,1 C 97 % 1013,1 hPa 0,0 l/m 0 min 0 min 0,0 UV-I 107 W/m 12,9 km/h (3 Bft)
13.05.2013 11:48 11,2 C 10,1 C 97 % 1013,0 hPa 0,0 l/m 0 min 0 min 0,0 UV-I 104 W/m 18,0 km/h (3 Bft)
13.05.2013 11:50 11,2 C 10,1 C 97 % 1013,2 hPa 0,0 l/m 0 min 0 min 0,0 UV-I 109 W/m 18,0 km/h (3 Bft)
13.05.2013 11:52 11,2 C 10,1 C 97 % 1013,1 hPa 0,0 l/m 0 min 0 min 0,0 UV-I 118 W/m 10,3 km/h (2 Bft)
13.05.2013 11:54 11,2 C 10,7 C 97 % 1013,0 hPa 0,0 l/m 0 min 0 min 0,0 UV-I 127 W/m 10,3 km/h (2 Bft)
13.05.2013 11:56 11,2 C 10,1 C 97 % 1013,1 hPa 0,0 l/m 0 min 0 min 0,0 UV-I 114 W/m 15,4 km/h (3 Bft)
13.05.2013 11:58 11,2 C 10,7 C 97 % 1013,2 hPa 0,0 l/m 0 min 0 min 0,0 UV-I 134 W/m 7,7 km/h (2 Bft)
13.05.2013 12:00 11,2 C 10,7 C 97 % 1013,1 hPa 0,0 l/m 0 min 0 min 0,0 UV-I 142 W/m 25,7 km/h (4 Bft)
13.05.2013 12:02 11,3 C 10,7 C 97 % 1013,3 hPa 0,0 l/m 0 min 0 min 0,0 UV-I 146 W/m 10,3 km/h (2 Bft)
13.05.2013 12:04 11,3 C 10,7 C 97 % 1013,2 hPa 0,0 l/m 0 min 0 min 0,0 UV-I 171 W/m 10,3 km/h (2 Bft)
13.05.2013 12:06 11,3 C 10,7 C 97 % 1013,1 hPa 0,0 l/m 0 min 2 min 0,6 UV-I 183 W/m 10,3 km/h (2 Bft)
13.05.2013 12:08 11,3 C 10,7 C 97 % 1013,2 hPa 0,0 l/m 0 min 2 min 0,6 UV-I 176 W/m 23,2 km/h (4 Bft)
13.05.2013 12:10 11,3 C 10,7 C 97 % 1013,1 hPa 0,0 l/m 0 min 2 min 0,6 UV-I 213 W/m 7,7 km/h (2 Bft)
13.05.2013 12:12 11,4 C 11,2 C 97 % 1013,1 hPa 0,0 l/m 0 min 2 min 0,9 UV-I 229 W/m 10,3 km/h (2 Bft)
13.05.2013 12:14 11,4 C 11,2 C 97 % 1013,1 hPa 0,0 l/m 0 min 2 min 0,6 UV-I 195 W/m 5,1 km/h (1 Bft)
13.05.2013 12:16 11,4 C 11,2 C 97 % 1013,1 hPa 0,0 l/m 0 min 0 min 0,6 UV-I 185 W/m 10,3 km/h (2 Bft)
13.05.2013 12:18 11,4 C 11,2 C 97 % 1013,1 hPa 0,0 l/m 0 min 0 min 0,6 UV-I 178 W/m 7,7 km/h (2 Bft)
13.05.2013 12:20 11,4 C 10,7 C 97 % 1013,0 hPa 0,0 l/m 0 min 0 min 0,0 UV-I 160 W/m 10,3 km/h (2 Bft)
13.05.2013 12:22 11,5 C 10,7 C 97 % 1013,0 hPa 0,0 l/m 0 min 0 min 0,0 UV-I 127 W/m 0,0 km/h (0 Bft)
13.05.2013 12:24 11,5 C 10,7 C 97 % 1012,9 hPa 0,0 l/m 0 min 2 min 0,0 UV-I 105 W/m 7,7 km/h (2 Bft)
13.05.2013 12:26 11,5 C 10,7 C 97 % 1013,0 hPa 0,0 l/m 0 min 2 min 0,0 UV-I 105 W/m 15,4 km/h (3 Bft)
13.05.2013 12:28 11,4 C 10,7 C 97 % 1013,0 hPa 0,2 l/m 0 min 2 min 0,0 UV-I 111 W/m 12,9 km/h (3 Bft)
13.05.2013 12:30 11,4 C 10,1 C 97 % 1013,0 hPa 0,0 l/m 0 min 2 min 0,0 UV-I 118 W/m 10,3 km/h (2 Bft)
13.05.2013 12:32 11,4 C 10,1 C 97 % 1013,0 hPa 0,2 l/m 0 min 2 min 0,0 UV-I 111 W/m 15,4 km/h (3 Bft)
13.05.2013 12:34 11,3 C 10,1 C 97 % 1013,1 hPa 0,0 l/m 0 min 2 min 0,0 UV-I 123 W/m 12,9 km/h (3 Bft)
13.05.2013 12:36 11,2 C 10,1 C 97 % 1013,0 hPa 0,2 l/m 0 min 2 min 0,0 UV-I 144 W/m 15,4 km/h (3 Bft)
13.05.2013 12:38 11,2 C 10,1 C 97 % 1013,1 hPa 0,2 l/m 0 min 2 min 0,0 UV-I 151 W/m 15,4 km/h (3 Bft)
13.05.2013 12:40 11,1 C 10,1 C 97 % 1013,1 hPa 0,0 l/m 0 min 2 min 0,0 UV-I 165 W/m 12,9 km/h (3 Bft)
13.05.2013 12:42 11,1 C 10,1 C 96 % 1013,1 hPa 0,0 l/m 0 min 2 min 0,5 UV-I 160 W/m 10,3 km/h (2 Bft)
13.05.2013 12:44 11,1 C 10,1 C 96 % 1013,0 hPa 0,0 l/m 0 min 2 min 0,0 UV-I 144 W/m 12,9 km/h (3 Bft)
13.05.2013 12:46 11,1 C 10,1 C 96 % 1013,0 hPa 0,2 l/m 0 min 2 min 0,6 UV-I 197 W/m 7,7 km/h (2 Bft)
13.05.2013 12:48 11,1 C 10,7 C 96 % 1012,9 hPa 0,0 l/m 0 min 0 min 0,8 UV-I 213 W/m 2,6 km/h (1 Bft)
13.05.2013 12:50 11,1 C 10,7 C 96 % 1012,9 hPa 0,0 l/m 0 min 0 min 0,0 UV-I 128 W/m 7,7 km/h (2 Bft)
13.05.2013 12:52 11,1 C 10,7 C 97 % 1012,9 hPa 0,0 l/m 0 min 0 min 0,0 UV-I 116 W/m 0,0 km/h (0 Bft)
13.05.2013 12:54 11,1 C 10,7 C 97 % 1012,9 hPa 0,0 l/m 0 min 0 min 0,0 UV-I 114 W/m 15,4 km/h (3 Bft)
13.05.2013 12:56 11,2 C 10,1 C 97 % 1012,8 hPa 0,0 l/m 0 min 0 min 0,0 UV-I 204 W/m 10,3 km/h (2 Bft)
13.05.2013 12:58 11,1 C 10,7 C 97 % 1012,9 hPa 0,0 l/m 0 min 0 min 1,5 UV-I 315 W/m 10,3 km/h (2 Bft)
13.05.2013 13:00 11,2 C 11,2 C 97 % 1012,8 hPa 0,0 l/m 0 min 0 min 0,9 UV-I 230 W/m 15,4 km/h (3 Bft)
13.05.2013 13:02 11,3 C 11,2 C 97 % 1012,8 hPa 0,0 l/m 0 min 0 min 1,6 UV-I 378 W/m 12,9 km/h (3 Bft)
13.05.2013 13:04 11,4 C 11,8 C 97 % 1012,8 hPa 0,0 l/m 0 min 0 min 1,9 UV-I 359 W/m 10,3 km/h (2 Bft)
13.05.2013 13:06 11,7 C 11,8 C 97 % 1012,7 hPa 0,0 l/m 0 min 0 min 1,4 UV-I 295 W/m 0,0 km/h (0 Bft)
13.05.2013 13:08 11,9 C 12,3 C 97 % 1012,8 hPa 0,0 l/m 0 min 0 min 1,8 UV-I 427 W/m 2,6 km/h (1 Bft)
13.05.2013 13:10 12,1 C 12,3 C 97 % 1012,7 hPa 0,0 l/m 0 min 0 min 1,7 UV-I 374 W/m 7,7 km/h (2 Bft)
13.05.2013 13:12 12,2 C 12,9 C 97 % 1012,7 hPa 0,0 l/m 0 min 0 min 1,5 UV-I 374 W/m 7,7 km/h (2 Bft)
13.05.2013 13:14 12,3 C 12,3 C 97 % 1012,7 hPa 0,0 l/m 0 min 0 min 0,7 UV-I 220 W/m 7,7 km/h (2 Bft)
13.05.2013 13:16 12,3 C 11,8 C 97 % 1012,8 hPa 0,0 l/m 0 min 0 min 0,0 UV-I 162 W/m 12,9 km/h (3 Bft)
13.05.2013 13:18 12,3 C 11,8 C 97 % 1012,8 hPa 0,0 l/m 0 min 0 min 0,0 UV-I 134 W/m 0,0 km/h (0 Bft)
13.05.2013 13:20 12,2 C 11,8 C 97 % 1012,8 hPa 0,0 l/m 0 min 2 min 0,0 UV-I 132 W/m 10,3 km/h (2 Bft)
13.05.2013 13:22 12,2 C 11,2 C 97 % 1012,8 hPa 0,0 l/m 0 min 2 min 0,0 UV-I 144 W/m 2,6 km/h (1 Bft)
13.05.2013 13:24 12,2 C 11,2 C 97 % 1012,9 hPa 0,0 l/m 0 min 2 min 0,0 UV-I 88 W/m 15,4 km/h (3 Bft)
13.05.2013 13:26 12,1 C 10,7 C 97 % 1012,8 hPa 0,2 l/m 0 min 2 min 0,0 UV-I 120 W/m 7,7 km/h (2 Bft)
13.05.2013 13:28 12,1 C 10,7 C 96 % 1012,8 hPa 0,0 l/m 0 min 2 min 0,0 UV-I 148 W/m 10,3 km/h (2 Bft)
13.05.2013 13:30 12,0 C 10,7 C 96 % 1012,8 hPa 0,0 l/m 0 min 2 min 0,0 UV-I 121 W/m 2,6 km/h (1 Bft)
13.05.2013 13:32 11,9 C 10,7 C 96 % 1012,8 hPa 0,2 l/m 0 min 2 min 0,0 UV-I 77 W/m 10,3 km/h (2 Bft)
13.05.2013 13:34 11,9 C 10,7 C 96 % 1012,8 hPa 0,0 l/m 0 min 2 min 0,0 UV-I 86 W/m 12,9 km/h (3 Bft)
13.05.2013 13:36 11,8 C 10,7 C 96 % 1012,8 hPa 0,0 l/m 0 min 2 min 1,1 UV-I 230 W/m 7,7 km/h (2 Bft)
13.05.2013 13:38 11,8 C 11,2 C 96 % 1012,7 hPa 0,2 l/m 0 min 2 min 1,8 UV-I 364 W/m 0,0 km/h (0 Bft)
13.05.2013 13:40 11,9 C 12,3 C 96 % 1012,7 hPa 0,0 l/m 0 min 2 min 3,0 UV-I 457 W/m 5,1 km/h (1 Bft)
13.05.2013 13:42 12,2 C 12,9 C 97 % 1012,7 hPa 0,0 l/m 2 min 0 min 2,9 UV-I 559 W/m 7,7 km/h (2 Bft)
13.05.2013 13:44 12,2 C 12,9 C 97 % 1012,6 hPa 0,0 l/m 2 min 0 min 2,6 UV-I 559 W/m 5,1 km/h (1 Bft)
13.05.2013 13:46 12,4 C 13,4 C 97 % 1012,7 hPa 0,0 l/m 2 min 0 min 3,7 UV-I 504 W/m 5,1 km/h (1 Bft)
13.05.2013 13:48 12,8 C 14,0 C 97 % 1012,7 hPa 0,0 l/m 2 min 0 min 4,3 UV-I 504 W/m 0,0 km/h (0 Bft)
13.05.2013 13:50 13,3 C 14,6 C 97 % 1012,6 hPa 0,0 l/m 2 min 0 min 3,1 UV-I 504 W/m 5,1 km/h (1 Bft)
13.05.2013 13:52 13,2 C 14,0 C 97 % 1012,5 hPa 0,0 l/m 0 min 0 min 1,9 UV-I 352 W/m 10,3 km/h (2 Bft)
13.05.2013 13:54 13,2 C 13,4 C 97 % 1012,5 hPa 0,0 l/m 0 min 0 min 2,1 UV-I 397 W/m 7,7 km/h (2 Bft)
13.05.2013 13:56 13,2 C 13,4 C 97 % 1012,5 hPa 0,0 l/m 0 min 0 min 1,6 UV-I 417 W/m 12,9 km/h (3 Bft)
13.05.2013 13:58 13,2 C 12,9 C 97 % 1012,5 hPa 0,0 l/m 0 min 0 min 1,3 UV-I 301 W/m 7,7 km/h (2 Bft)
13.05.2013 14:00 13,2 C 12,9 C 96 % 1012,5 hPa 0,0 l/m 0 min 0 min 1,3 UV-I 260 W/m 7,7 km/h (2 Bft)
13.05.2013 14:02 13,2 C 12,9 C 96 % 1012,4 hPa 0,0 l/m 0 min 0 min 1,5 UV-I 279 W/m 5,1 km/h (1 Bft)
13.05.2013 14:04 13,3 C 12,9 C 96 % 1012,4 hPa 0,0 l/m 0 min 0 min 1,6 UV-I 302 W/m 2,6 km/h (1 Bft)
13.05.2013 14:06 13,4 C 12,9 C 95 % 1012,4 hPa 0,0 l/m 0 min 0 min 1,4 UV-I 306 W/m 0,0 km/h (0 Bft)
13.05.2013 14:08 13,4 C 12,9 C 95 % 1012,4 hPa 0,0 l/m 0 min 0 min 1,1 UV-I 239 W/m 2,6 km/h (1 Bft)
13.05.2013 14:10 13,4 C 12,9 C 94 % 1012,4 hPa 0,0 l/m 0 min 0 min 1,4 UV-I 308 W/m 7,7 km/h (2 Bft)
13.05.2013 14:12 13,4 C 12,9 C 94 % 1012,4 hPa 0,0 l/m 0 min 0 min 0,9 UV-I 236 W/m 15,4 km/h (3 Bft)
13.05.2013 14:14 13,4 C 12,3 C 93 % 1012,4 hPa 0,0 l/m 0 min 0 min 0,5 UV-I 176 W/m 7,7 km/h (2 Bft)
13.05.2013 14:16 13,3 C 12,3 C 93 % 1012,4 hPa 0,0 l/m 0 min 0 min 0,5 UV-I 172 W/m 12,9 km/h (3 Bft)
13.05.2013 14:18 13,3 C 12,3 C 93 % 1012,4 hPa 0,0 l/m 0 min 0 min 0,0 UV-I 125 W/m 15,4 km/h (3 Bft)
13.05.2013 14:20 13,3 C 11,8 C 92 % 1012,4 hPa 0,0 l/m 0 min 0 min 0,0 UV-I 104 W/m 12,9 km/h (3 Bft)
13.05.2013 14:22 13,2 C 11,8 C 92 % 1012,4 hPa 0,0 l/m 0 min 0 min 0,6 UV-I 176 W/m 12,9 km/h (3 Bft)
13.05.2013 14:24 13,2 C 11,8 C 92 % 1012,4 hPa 0,0 l/m 0 min 0 min 0,7 UV-I 200 W/m 15,4 km/h (3 Bft)
13.05.2013 14:26 13,2 C 11,8 C 91 % 1012,3 hPa 0,0 l/m 0 min 0 min 0,0 UV-I 169 W/m 10,3 km/h (2 Bft)
13.05.2013 14:28 13,2 C 11,8 C 91 % 1012,3 hPa 0,0 l/m 0 min 0 min 0,7 UV-I 213 W/m 7,7 km/h (2 Bft)
13.05.2013 14:30 13,2 C 11,8 C 91 % 1012,4 hPa 0,0 l/m 0 min 0 min 1,3 UV-I 357 W/m 2,6 km/h (1 Bft)
13.05.2013 14:32 13,3 C 12,3 C 91 % 1012,2 hPa 0,0 l/m 2 min 0 min 3,3 UV-I 524 W/m 10,3 km/h (2 Bft)
13.05.2013 14:34 13,6 C 12,9 C 91 % 1012,2 hPa 0,0 l/m 2 min 0 min 2,0 UV-I 455 W/m 5,1 km/h (1 Bft)
13.05.2013 14:36 13,7 C 13,4 C 91 % 1012,2 hPa 0,0 l/m 2 min 0 min 2,1 UV-I 471 W/m 2,6 km/h (1 Bft)
13.05.2013 14:38 13,9 C 13,4 C 91 % 1012,2 hPa 0,0 l/m 2 min 0 min 4,1 UV-I 891 W/m 12,9 km/h (3 Bft)
13.05.2013 14:40 14,0 C 14,0 C 90 % 1012,2 hPa 0,0 l/m 2 min 0 min 4,2 UV-I 969 W/m 12,9 km/h (3 Bft)
13.05.2013 14:42 14,3 C 14,0 C 90 % 1012,2 hPa 0,0 l/m 2 min 0 min 2,7 UV-I 483 W/m 7,7 km/h (2 Bft)
13.05.2013 14:44 14,4 C 13,4 C 89 % 1012,2 hPa 0,0 l/m 2 min 0 min 2,3 UV-I 519 W/m 5,1 km/h (1 Bft)
13.05.2013 14:46 14,5 C 14,0 C 88 % 1012,1 hPa 0,0 l/m 0 min 0 min 2,7 UV-I 427 W/m 2,6 km/h (1 Bft)
13.05.2013 14:48 14,5 C 14,0 C 87 % 1012,2 hPa 0,0 l/m 2 min 0 min 3,9 UV-I 816 W/m 15,4 km/h (3 Bft)
13.05.2013 14:50 14,7 C 14,0 C 87 % 1012,2 hPa 0,0 l/m 2 min 0 min 3,8 UV-I 816 W/m 12,9 km/h (3 Bft)
13.05.2013 14:52 14,8 C 14,6 C 85 % 1012,3 hPa 0,0 l/m 2 min 0 min 2,3 UV-I 816 W/m 20,6 km/h (4 Bft)
13.05.2013 14:54 14,7 C 14,0 C 84 % 1012,3 hPa 0,0 l/m 0 min 0 min 1,6 UV-I 311 W/m 23,2 km/h (4 Bft)
13.05.2013 14:56 14,4 C 13,4 C 82 % 1012,2 hPa 0,0 l/m 0 min 0 min 1,2 UV-I 281 W/m 12,9 km/h (3 Bft)
13.05.2013 14:58 14,2 C 13,4 C 83 % 1012,1 hPa 0,0 l/m 0 min 0 min 1,5 UV-I 336 W/m 12,9 km/h (3 Bft)
13.05.2013 15:00 14,2 C 13,4 C 84 % 1012,1 hPa 0,0 l/m 0 min 0 min 1,5 UV-I 348 W/m 7,7 km/h (2 Bft)
13.05.2013 15:02 14,1 C 13,4 C 84 % 1012,1 hPa 0,0 l/m 0 min 0 min 1,4 UV-I 323 W/m 18,0 km/h (3 Bft)
13.05.2013 15:04 14,1 C 14,0 C 85 % 1012,2 hPa 0,0 l/m 0 min 0 min 2,3 UV-I 332 W/m 10,3 km/h (2 Bft)
13.05.2013 15:06 14,3 C 14,6 C 85 % 1012,1 hPa 0,0 l/m 2 min 0 min 3,2 UV-I 758 W/m 10,3 km/h (2 Bft)
13.05.2013 15:08 14,6 C 14,6 C 83 % 1012,1 hPa 0,0 l/m 2 min 0 min 3,7 UV-I 775 W/m 15,4 km/h (3 Bft)
13.05.2013 15:10 14,8 C 15,1 C 82 % 1012,1 hPa 0,0 l/m 2 min 0 min 3,6 UV-I 712 W/m 12,9 km/h (3 Bft)
13.05.2013 15:12 15,0 C 15,1 C 82 % 1012,1 hPa 0,0 l/m 0 min 0 min 1,9 UV-I 332 W/m 10,3 km/h (2 Bft)
13.05.2013 15:14 14,9 C 14,6 C 82 % 1012,1 hPa 0,0 l/m 0 min 0 min 1,7 UV-I 306 W/m 15,4 km/h (3 Bft)
13.05.2013 15:16 14,8 C 14,6 C 81 % 1012,2 hPa 0,0 l/m 0 min 0 min 2,1 UV-I 417 W/m 12,9 km/h (3 Bft)
13.05.2013 15:18 14,9 C 15,1 C 82 % 1012,1 hPa 0,0 l/m 2 min 0 min 3,4 UV-I 450 W/m 10,3 km/h (2 Bft)
13.05.2013 15:20 15,2 C 15,7 C 81 % 1012,0 hPa 0,0 l/m 0 min 0 min 1,8 UV-I 343 W/m 12,9 km/h (3 Bft)
13.05.2013 15:22 15,1 C 14,6 C 79 % 1012,0 hPa 0,0 l/m 0 min 0 min 1,1 UV-I 246 W/m 20,6 km/h (4 Bft)
13.05.2013 15:24 14,9 C 14,6 C 79 % 1012,1 hPa 0,0 l/m 0 min 0 min 0,6 UV-I 186 W/m 18,0 km/h (3 Bft)
13.05.2013 15:26 14,8 C 14,0 C 78 % 1012,1 hPa 0,0 l/m 0 min 0 min 0,7 UV-I 195 W/m 23,2 km/h (4 Bft)
13.05.2013 15:28 14,6 C 13,4 C 78 % 1012,1 hPa 0,0 l/m 0 min 0 min 0,9 UV-I 207 W/m 15,4 km/h (3 Bft)
13.05.2013 15:30 14,5 C 14,0 C 79 % 1011,9 hPa 0,0 l/m 0 min 0 min 0,6 UV-I 165 W/m 20,6 km/h (4 Bft)
13.05.2013 15:32 14,4 C 13,4 C 78 % 1012,0 hPa 0,0 l/m 0 min 0 min 0,0 UV-I 118 W/m 18,0 km/h (3 Bft)
13.05.2013 15:34 14,4 C 13,4 C 78 % 1012,0 hPa 0,0 l/m 0 min 0 min 0,0 UV-I 93 W/m 15,4 km/h (3 Bft)
13.05.2013 15:36 14,3 C 12,9 C 79 % 1012,1 hPa 0,0 l/m 0 min 0 min 0,0 UV-I 79 W/m 15,4 km/h (3 Bft)
13.05.2013 15:38 14,3 C 12,9 C 79 % 1012,1 hPa 0,0 l/m 0 min 0 min 0,0 UV-I 105 W/m 12,9 km/h (3 Bft)
13.05.2013 15:40 14,3 C 12,9 C 79 % 1012,0 hPa 0,0 l/m 0 min 0 min 0,0 UV-I 90 W/m 7,7 km/h (2 Bft)
13.05.2013 15:42 14,2 C 12,9 C 80 % 1012,1 hPa 0,0 l/m 0 min 0 min 0,0 UV-I 100 W/m 7,7 km/h (2 Bft)
13.05.2013 15:44 14,2 C 12,9 C 81 % 1012,1 hPa 0,0 l/m 0 min 0 min 0,7 UV-I 218 W/m 0,0 km/h (0 Bft)
13.05.2013 15:46 14,4 C 14,0 C 84 % 1012,0 hPa 0,0 l/m 2 min 0 min 3,3 UV-I 946 W/m 10,3 km/h (2 Bft)
13.05.2013 15:48 14,6 C 14,0 C 81 % 1012,0 hPa 0,0 l/m 0 min 0 min 1,3 UV-I 241 W/m 7,7 km/h (2 Bft)
13.05.2013 15:50 14,6 C 14,0 C 80 % 1011,9 hPa 0,0 l/m 0 min 0 min 1,1 UV-I 220 W/m 10,3 km/h (2 Bft)
13.05.2013 15:52 14,6 C 14,6 C 81 % 1011,9 hPa 0,0 l/m 0 min 0 min 1,0 UV-I 236 W/m 0,0 km/h (0 Bft)
13.05.2013 15:54 14,6 C 14,0 C 80 % 1012,0 hPa 0,0 l/m 0 min 0 min 0,8 UV-I 207 W/m 15,4 km/h (3 Bft)
13.05.2013 15:56 14,6 C 14,0 C 79 % 1011,9 hPa 0,0 l/m 0 min 0 min 0,7 UV-I 204 W/m 18,0 km/h (3 Bft)
13.05.2013 15:58 14,5 C 14,0 C 79 % 1011,9 hPa 0,0 l/m 0 min 0 min 0,6 UV-I 199 W/m 15,4 km/h (3 Bft)
13.05.2013 16:00 14,4 C 14,0 C 78 % 1012,0 hPa 0,0 l/m 0 min 0 min 0,5 UV-I 192 W/m 12,9 km/h (3 Bft)
13.05.2013 16:02 14,4 C 14,0 C 78 % 1011,9 hPa 0,0 l/m 0 min 0 min 0,9 UV-I 192 W/m 15,4 km/h (3 Bft)
13.05.2013 16:04 14,4 C 14,0 C 77 % 1012,0 hPa 0,0 l/m 0 min 0 min 0,9 UV-I 244 W/m 15,4 km/h (3 Bft)
13.05.2013 16:06 14,4 C 14,0 C 77 % 1012,0 hPa 0,0 l/m 0 min 0 min 0,7 UV-I 216 W/m 18,0 km/h (3 Bft)
13.05.2013 16:08 14,4 C 14,0 C 78 % 1011,9 hPa 0,0 l/m 0 min 0 min 0,0 UV-I 169 W/m 7,7 km/h (2 Bft)
13.05.2013 16:10 14,4 C 14,0 C 77 % 1012,0 hPa 0,0 l/m 0 min 0 min 0,0 UV-I 116 W/m 15,4 km/h (3 Bft)
13.05.2013 16:12 14,4 C 13,4 C 77 % 1011,8 hPa 0,0 l/m 0 min 0 min 0,0 UV-I 90 W/m 10,3 km/h (2 Bft)
13.05.2013 16:14 14,4 C 13,4 C 77 % 1012,0 hPa 0,0 l/m 0 min 0 min 0,0 UV-I 111 W/m 15,4 km/h (3 Bft)
13.05.2013 16:16 14,3 C 13,4 C 78 % 1011,9 hPa 0,0 l/m 0 min 0 min 0,0 UV-I 192 W/m 10,3 km/h (2 Bft)
13.05.2013 16:18 14,3 C 14,0 C 77 % 1011,8 hPa 0,0 l/m 0 min 0 min 0,9 UV-I 274 W/m 15,4 km/h (3 Bft)
13.05.2013 16:20 14,4 C 14,0 C 77 % 1011,9 hPa 0,0 l/m 0 min 0 min 0,7 UV-I 265 W/m 15,4 km/h (3 Bft)
13.05.2013 16:22 14,4 C 14,0 C 76 % 1011,8 hPa 0,0 l/m 0 min 0 min 0,0 UV-I 153 W/m 7,7 km/h (2 Bft)
13.05.2013 16:24 14,4 C 14,0 C 77 % 1011,8 hPa 0,0 l/m 0 min 0 min 0,0 UV-I 137 W/m 18,0 km/h (3 Bft)
13.05.2013 16:26 14,4 C 13,4 C 76 % 1011,9 hPa 0,0 l/m 0 min 0 min 0,0 UV-I 128 W/m 5,1 km/h (1 Bft)
13.05.2013 16:28 14,3 C 13,4 C 75 % 1011,9 hPa 0,0 l/m 0 min 0 min 0,0 UV-I 97 W/m 18,0 km/h (3 Bft)
13.05.2013 16:30 14,3 C 13,4 C 74 % 1011,8 hPa 0,0 l/m 0 min 0 min 0,0 UV-I 95 W/m 15,4 km/h (3 Bft)
13.05.2013 16:32 14,3 C 13,4 C 75 % 1011,9 hPa 0,0 l/m 0 min 0 min 0,0 UV-I 90 W/m 12,9 km/h (3 Bft)
13.05.2013 16:34 14,2 C 12,9 C 75 % 1011,9 hPa 0,0 l/m 0 min 0 min 0,0 UV-I 128 W/m 12,9 km/h (3 Bft)
13.05.2013 16:36 14,2 C 13,4 C 75 % 1011,9 hPa 0,0 l/m 0 min 0 min 0,0 UV-I 169 W/m 15,4 km/h (3 Bft)
13.05.2013 16:38 14,2 C 13,4 C 76 % 1011,9 hPa 0,0 l/m 0 min 0 min 0,5 UV-I 197 W/m 2,6 km/h (1 Bft)
13.05.2013 16:40 14,3 C 14,0 C 76 % 1011,9 hPa 0,0 l/m 0 min 0 min 0,9 UV-I 262 W/m 15,4 km/h (3 Bft)
13.05.2013 16:42 14,5 C 14,6 C 75 % 1011,9 hPa 0,0 l/m 2 min 0 min 1,2 UV-I 650 W/m 18,0 km/h (3 Bft)
13.05.2013 16:44 14,7 C 14,6 C 75 % 1011,9 hPa 0,0 l/m 2 min 0 min 0,9 UV-I 580 W/m 15,4 km/h (3 Bft)
13.05.2013 16:46 14,8 C 14,6 C 74 % 1011,8 hPa 0,0 l/m 0 min 0 min 0,5 UV-I 193 W/m 18,0 km/h (3 Bft)
13.05.2013 16:48 14,7 C 14,0 C 73 % 1011,7 hPa 0,0 l/m 0 min 0 min 0,0 UV-I 176 W/m 10,3 km/h (2 Bft)
13.05.2013 16:50 14,7 C 14,0 C 74 % 1011,7 hPa 0,0 l/m 0 min 0 min 0,0 UV-I 160 W/m 12,9 km/h (3 Bft)
13.05.2013 16:52 14,7 C 14,0 C 74 % 1011,7 hPa 0,0 l/m 0 min 0 min 0,0 UV-I 90 W/m 5,1 km/h (1 Bft)
13.05.2013 16:54 14,7 C 13,4 C 75 % 1011,7 hPa 0,0 l/m 0 min 0 min 0,0 UV-I 54 W/m 0,0 km/h (0 Bft)
13.05.2013 16:56 14,7 C 13,4 C 76 % 1011,7 hPa 0,0 l/m 0 min 0 min 0,0 UV-I 33 W/m 7,7 km/h (2 Bft)
13.05.2013 16:58 14,7 C 13,4 C 76 % 1011,8 hPa 0,0 l/m 0 min 0 min 0,0 UV-I 58 W/m 12,9 km/h (3 Bft)
13.05.2013 17:00 14,7 C 13,4 C 76 % 1011,8 hPa 0,0 l/m 0 min 0 min 0,0 UV-I 98 W/m 2,6 km/h (1 Bft)
13.05.2013 17:02 14,7 C 13,4 C 76 % 1011,8 hPa 0,0 l/m 0 min 0 min 0,0 UV-I 102 W/m 2,6 km/h (1 Bft)
13.05.2013 17:04 14,6 C 13,4 C 76 % 1011,8 hPa 0,0 l/m 0 min 0 min 0,0 UV-I 88 W/m 20,6 km/h (4 Bft)
13.05.2013 17:06 14,6 C 13,4 C 76 % 1011,8 hPa 0,0 l/m 0 min 0 min 0,0 UV-I 100 W/m 10,3 km/h (2 Bft)
13.05.2013 17:08 14,6 C 13,4 C 76 % 1011,8 hPa 0,0 l/m 0 min 0 min 0,0 UV-I 151 W/m 2,6 km/h (1 Bft)
13.05.2013 17:10 14,6 C 13,4 C 76 % 1011,8 hPa 0,0 l/m 0 min 0 min 0,0 UV-I 120 W/m 5,1 km/h (1 Bft)
13.05.2013 17:12 14,6 C 13,4 C 75 % 1011,8 hPa 0,0 l/m 0 min 0 min 0,0 UV-I 100 W/m 18,0 km/h (3 Bft)
13.05.2013 17:14 14,6 C 13,4 C 75 % 1011,8 hPa 0,0 l/m 0 min 0 min 0,0 UV-I 102 W/m 18,0 km/h (3 Bft)
13.05.2013 17:16 14,5 C 13,4 C 74 % 1011,8 hPa 0,0 l/m 0 min 0 min 0,0 UV-I 95 W/m 18,0 km/h (3 Bft)
13.05.2013 17:18 14,5 C 13,4 C 74 % 1011,7 hPa 0,0 l/m 0 min 0 min 0,0 UV-I 169 W/m 15,4 km/h (3 Bft)
13.05.2013 17:20 14,5 C 13,4 C 74 % 1011,7 hPa 0,0 l/m 0 min 0 min 0,0 UV-I 225 W/m 10,3 km/h (2 Bft)
13.05.2013 17:22 14,5 C 14,0 C 75 % 1011,8 hPa 0,0 l/m 0 min 0 min 0,0 UV-I 223 W/m 7,7 km/h (2 Bft)
13.05.2013 17:24 14,6 C 14,0 C 76 % 1011,7 hPa 0,0 l/m 0 min 0 min 0,0 UV-I 209 W/m 2,6 km/h (1 Bft)
13.05.2013 17:26 14,6 C 14,0 C 75 % 1011,7 hPa 0,0 l/m 0 min 0 min 0,0 UV-I 227 W/m 10,3 km/h (2 Bft)
13.05.2013 17:28 14,6 C 14,0 C 74 % 1011,6 hPa 0,0 l/m 0 min 0 min 0,0 UV-I 264 W/m 23,2 km/h (4 Bft)
13.05.2013 17:30 14,6 C 14,0 C 73 % 1011,6 hPa 0,0 l/m 0 min 0 min 0,5 UV-I 272 W/m 10,3 km/h (2 Bft)
13.05.2013 17:32 14,7 C 14,6 C 73 % 1011,6 hPa 0,0 l/m 2 min 0 min 0,6 UV-I 364 W/m 7,7 km/h (2 Bft)
13.05.2013 17:34 14,7 C 14,6 C 73 % 1011,6 hPa 0,0 l/m 2 min 0 min 0,6 UV-I 399 W/m 0,0 km/h (0 Bft)
13.05.2013 17:36 14,8 C 14,6 C 74 % 1011,6 hPa 0,0 l/m 2 min 0 min 0,8 UV-I 411 W/m 7,7 km/h (2 Bft)
13.05.2013 17:38 15,0 C 14,6 C 73 % 1011,5 hPa 0,0 l/m 2 min 0 min 0,8 UV-I 366 W/m 7,7 km/h (2 Bft)
13.05.2013 17:40 15,1 C 14,6 C 71 % 1011,5 hPa 0,0 l/m 2 min 0 min 0,7 UV-I 343 W/m 15,4 km/h (3 Bft)
13.05.2013 17:42 15,1 C 14,6 C 70 % 1011,5 hPa 0,0 l/m 2 min 0 min 0,6 UV-I 309 W/m 23,2 km/h (4 Bft)
13.05.2013 17:44 15,1 C 14,6 C 69 % 1011,6 hPa 0,0 l/m 2 min 0 min 0,7 UV-I 316 W/m 20,6 km/h (4 Bft)
13.05.2013 17:46 15,1 C 14,0 C 70 % 1011,6 hPa 0,0 l/m 0 min 0 min 0,0 UV-I 185 W/m 18,0 km/h (3 Bft)
13.05.2013 17:48 15,0 C 14,0 C 69 % 1011,6 hPa 0,0 l/m 0 min 0 min 0,0 UV-I 153 W/m 12,9 km/h (3 Bft)
13.05.2013 17:50 14,9 C 14,0 C 68 % 1011,6 hPa 0,0 l/m 0 min 0 min 0,0 UV-I 146 W/m 20,6 km/h (4 Bft)
13.05.2013 17:52 14,9 C 14,0 C 70 % 1011,6 hPa 0,0 l/m 0 min 0 min 0,0 UV-I 123 W/m 15,4 km/h (3 Bft)
13.05.2013 17:54 14,8 C 13,4 C 69 % 1011,6 hPa 0,0 l/m 0 min 0 min 0,0 UV-I 107 W/m 12,9 km/h (3 Bft)
13.05.2013 17:56 14,8 C 13,4 C 70 % 1011,5 hPa 0,0 l/m 0 min 0 min 0,0 UV-I 69 W/m 12,9 km/h (3 Bft)
13.05.2013 17:58 14,8 C 13,4 C 70 % 1011,5 hPa 0,0 l/m 0 min 0 min 0,0 UV-I 60 W/m 18,0 km/h (3 Bft)
13.05.2013 18:00 14,7 C 13,4 C 70 % 1011,5 hPa 0,0 l/m 0 min 0 min 0,0 UV-I 54 W/m 23,2 km/h (4 Bft)
13.05.2013 18:02 14,7 C 12,9 C 70 % 1011,5 hPa 0,0 l/m 0 min 0 min 0,0 UV-I 146 W/m 15,4 km/h (3 Bft)
13.05.2013 18:04 14,7 C 13,4 C 70 % 1011,5 hPa 0,0 l/m 0 min 0 min 0,0 UV-I 148 W/m 18,0 km/h (3 Bft)
13.05.2013 18:06 14,7 C 13,4 C 71 % 1011,6 hPa 0,0 l/m 2 min 0 min 0,0 UV-I 257 W/m 15,4 km/h (3 Bft)
13.05.2013 18:08 14,7 C 14,0 C 71 % 1011,6 hPa 0,0 l/m 0 min 0 min 0,0 UV-I 218 W/m 12,9 km/h (3 Bft)
13.05.2013 18:10 14,7 C 14,0 C 72 % 1011,6 hPa 0,0 l/m 0 min 0 min 0,0 UV-I 179 W/m 12,9 km/h (3 Bft)
13.05.2013 18:12 14,7 C 14,0 C 71 % 1011,6 hPa 0,0 l/m 2 min 0 min 0,0 UV-I 265 W/m 20,6 km/h (4 Bft)
13.05.2013 18:14 14,7 C 14,0 C 71 % 1011,6 hPa 0,0 l/m 0 min 0 min 0,0 UV-I 223 W/m 15,4 km/h (3 Bft)
13.05.2013 18:16 14,7 C 14,0 C 71 % 1011,5 hPa 0,0 l/m 0 min 0 min 0,0 UV-I 192 W/m 7,7 km/h (2 Bft)
13.05.2013 18:18 14,7 C 14,0 C 71 % 1011,5 hPa 0,0 l/m 0 min 0 min 0,0 UV-I 169 W/m 18,0 km/h (3 Bft)
13.05.2013 18:20 14,7 C 13,4 C 69 % 1011,6 hPa 0,0 l/m 0 min 0 min 0,0 UV-I 165 W/m 28,3 km/h (4 Bft)
13.05.2013 18:22 14,7 C 13,4 C 70 % 1011,5 hPa 0,0 l/m 0 min 0 min 0,0 UV-I 185 W/m 5,1 km/h (1 Bft)
13.05.2013 18:24 14,7 C 14,0 C 70 % 1011,6 hPa 0,0 l/m 0 min 0 min 0,0 UV-I 200 W/m 12,9 km/h (3 Bft)
13.05.2013 18:26 14,7 C 14,0 C 70 % 1011,6 hPa 0,0 l/m 0 min 0 min 0,0 UV-I 207 W/m 18,0 km/h (3 Bft)
13.05.2013 18:28 14,7 C 14,0 C 68 % 1011,6 hPa 0,0 l/m 0 min 0 min 0,0 UV-I 211 W/m 18,0 km/h (3 Bft)
13.05.2013 18:30 14,7 C 14,0 C 68 % 1011,5 hPa 0,0 l/m 0 min 0 min 0,0 UV-I 193 W/m 10,3 km/h (2 Bft)
13.05.2013 18:32 14,8 C 14,0 C 68 % 1011,6 hPa 0,0 l/m 0 min 0 min 0,0 UV-I 179 W/m 12,9 km/h (3 Bft)
13.05.2013 18:34 14,8 C 14,0 C 68 % 1011,6 hPa 0,0 l/m 0 min 0 min 0,0 UV-I 172 W/m 20,6 km/h (4 Bft)
13.05.2013 18:36 14,7 C 13,4 C 66 % 1011,6 hPa 0,0 l/m 0 min 0 min 0,0 UV-I 163 W/m 15,4 km/h (3 Bft)
13.05.2013 18:38 14,7 C 13,4 C 64 % 1011,6 hPa 0,0 l/m 0 min 0 min 0,0 UV-I 155 W/m 20,6 km/h (4 Bft)
13.05.2013 18:40 14,7 C 13,4 C 61 % 1011,6 hPa 0,0 l/m 0 min 0 min 0,0 UV-I 148 W/m 20,6 km/h (4 Bft)
13.05.2013 18:42 14,6 C 13,4 C 62 % 1011,7 hPa 0,0 l/m 0 min 0 min 0,0 UV-I 148 W/m 18,0 km/h (3 Bft)
13.05.2013 18:44 14,6 C 13,4 C 61 % 1011,6 hPa 0,0 l/m 0 min 0 min 0,0 UV-I 141 W/m 12,9 km/h (3 Bft)
13.05.2013 18:46 14,6 C 12,9 C 62 % 1011,6 hPa 0,0 l/m 0 min 0 min 0,0 UV-I 132 W/m 15,4 km/h (3 Bft)
13.05.2013 18:48 14,5 C 12,9 C 62 % 1011,6 hPa 0,0 l/m 0 min 0 min 0,0 UV-I 121 W/m 12,9 km/h (3 Bft)
13.05.2013 18:50 14,4 C 12,9 C 61 % 1011,6 hPa 0,0 l/m 0 min 0 min 0,0 UV-I 125 W/m 33,5 km/h (5 Bft)
13.05.2013 18:52 14,3 C 12,9 C 61 % 1011,6 hPa 0,0 l/m 0 min 0 min 0,0 UV-I 128 W/m 28,3 km/h (4 Bft)
13.05.2013 18:54 14,3 C 12,9 C 61 % 1011,5 hPa 0,0 l/m 0 min 0 min 0,0 UV-I 128 W/m 12,9 km/h (3 Bft)
13.05.2013 18:56 14,2 C 12,9 C 62 % 1011,4 hPa 0,0 l/m 0 min 0 min 0,0 UV-I 128 W/m 20,6 km/h (4 Bft)
13.05.2013 18:58 14,2 C 12,9 C 62 % 1011,5 hPa 0,0 l/m 0 min 0 min 0,0 UV-I 123 W/m 12,9 km/h (3 Bft)
13.05.2013 19:00 14,2 C 12,9 C 62 % 1011,5 hPa 0,0 l/m 0 min 0 min 0,0 UV-I 105 W/m 7,7 km/h (2 Bft)
13.05.2013 19:02 14,1 C 12,9 C 63 % 1011,5 hPa 0,0 l/m 0 min 0 min 0,0 UV-I 93 W/m 18,0 km/h (3 Bft)
13.05.2013 19:04 14,0 C 12,3 C 62 % 1011,5 hPa 0,0 l/m 0 min 0 min 0,0 UV-I 81 W/m 12,9 km/h (3 Bft)
13.05.2013 19:06 14,0 C 12,3 C 63 % 1011,6 hPa 0,0 l/m 0 min 0 min 0,0 UV-I 70 W/m 15,4 km/h (3 Bft)
13.05.2013 19:08 14,0 C 12,3 C 63 % 1011,6 hPa 0,0 l/m 0 min 0 min 0,0 UV-I 69 W/m 18,0 km/h (3 Bft)
13.05.2013 19:10 14,0 C 12,3 C 63 % 1011,6 hPa 0,0 l/m 0 min 0 min 0,0 UV-I 67 W/m 15,4 km/h (3 Bft)
13.05.2013 19:12 13,9 C 12,3 C 63 % 1011,6 hPa 0,0 l/m 0 min 0 min 0,0 UV-I 72 W/m 15,4 km/h (3 Bft)
13.05.2013 19:14 13,9 C 12,3 C 63 % 1011,6 hPa 0,0 l/m 0 min 0 min 0,0 UV-I 77 W/m 12,9 km/h (3 Bft)
13.05.2013 19:16 13,8 C 12,3 C 64 % 1011,5 hPa 0,0 l/m 0 min 0 min 0,0 UV-I 84 W/m 10,3 km/h (2 Bft)
13.05.2013 19:18 13,8 C 12,3 C 64 % 1011,5 hPa 0,0 l/m 0 min 0 min 0,0 UV-I 91 W/m 7,7 km/h (2 Bft)
13.05.2013 19:20 13,8 C 12,3 C 64 % 1011,5 hPa 0,0 l/m 0 min 0 min 0,0 UV-I 90 W/m 15,4 km/h (3 Bft)
13.05.2013 19:22 13,8 C 12,3 C 64 % 1011,5 hPa 0,0 l/m 0 min 0 min 0,0 UV-I 86 W/m 5,1 km/h (1 Bft)
13.05.2013 19:24 13,7 C 12,3 C 64 % 1011,5 hPa 0,0 l/m 0 min 0 min 0,0 UV-I 83 W/m 7,7 km/h (2 Bft)
13.05.2013 19:26 13,7 C 12,3 C 64 % 1011,6 hPa 0,0 l/m 0 min 0 min 0,0 UV-I 79 W/m 10,3 km/h (2 Bft)
13.05.2013 19:28 13,7 C 12,3 C 65 % 1011,5 hPa 0,0 l/m 0 min 0 min 0,0 UV-I 76 W/m 15,4 km/h (3 Bft)
13.05.2013 19:30 13,7 C 12,3 C 65 % 1011,5 hPa 0,0 l/m 0 min 0 min 0,0 UV-I 69 W/m 7,7 km/h (2 Bft)
13.05.2013 19:32 13,6 C 12,3 C 65 % 1011,5 hPa 0,0 l/m 0 min 0 min 0,0 UV-I 67 W/m 7,7 km/h (2 Bft)
13.05.2013 19:34 13,6 C 11,8 C 65 % 1011,6 hPa 0,0 l/m 0 min 0 min 0,0 UV-I 63 W/m 10,3 km/h (2 Bft)
13.05.2013 19:36 13,6 C 11,8 C 65 % 1011,5 hPa 0,0 l/m 0 min 0 min 0,0 UV-I 56 W/m 12,9 km/h (3 Bft)
13.05.2013 19:38 13,6 C 11,8 C 66 % 1011,5 hPa 0,0 l/m 0 min 0 min 0,0 UV-I 51 W/m 12,9 km/h (3 Bft)
13.05.2013 19:40 13,6 C 11,8 C 66 % 1011,5 hPa 0,0 l/m 0 min 0 min 0,0 UV-I 47 W/m 7,7 km/h (2 Bft)
13.05.2013 19:42 13,5 C 11,8 C 66 % 1011,3 hPa 0,0 l/m 0 min 0 min 0,0 UV-I 42 W/m 2,6 km/h (1 Bft)
13.05.2013 19:44 13,5 C 11,8 C 66 % 1011,3 hPa 0,0 l/m 0 min 0 min 0,0 UV-I 39 W/m 10,3 km/h (2 Bft)
13.05.2013 19:46 13,5 C 11,8 C 67 % 1011,3 hPa 0,0 l/m 0 min 0 min 0,0 UV-I 35 W/m 12,9 km/h (3 Bft)
13.05.2013 19:48 13,4 C 11,8 C 66 % 1011,4 hPa 0,0 l/m 0 min 0 min 0,0 UV-I 35 W/m 5,1 km/h (1 Bft)
13.05.2013 19:50 13,4 C 11,8 C 67 % 1011,4 hPa 0,0 l/m 0 min 0 min 0,0 UV-I 35 W/m 5,1 km/h (1 Bft)
13.05.2013 19:52 13,4 C 11,8 C 67 % 1011,4 hPa 0,0 l/m 0 min 0 min 0,0 UV-I 39 W/m 7,7 km/h (2 Bft)
13.05.2013 19:54 13,3 C 11,8 C 68 % 1011,4 hPa 0,0 l/m 0 min 0 min 0,0 UV-I 40 W/m 0,0 km/h (0 Bft)
13.05.2013 19:56 13,3 C 11,8 C 68 % 1011,4 hPa 0,0 l/m 0 min 0 min 0,0 UV-I 44 W/m 0,0 km/h (0 Bft)
13.05.2013 19:58 13,3 C 11,8 C 68 % 1011,3 hPa 0,0 l/m 0 min 0 min 0,0 UV-I 49 W/m 2,6 km/h (1 Bft)
13.05.2013 20:00 13,3 C 11,8 C 68 % 1011,3 hPa 0,0 l/m 0 min 0 min 0,0 UV-I 51 W/m 0,0 km/h (0 Bft)
13.05.2013 20:02 13,3 C 11,8 C 68 % 1011,3 hPa 0,0 l/m 0 min 0 min 0,0 UV-I 53 W/m 0,0 km/h (0 Bft)
13.05.2013 20:04 13,3 C 11,8 C 69 % 1011,3 hPa 0,0 l/m 0 min 0 min 0,0 UV-I 56 W/m 0,0 km/h (0 Bft)
13.05.2013 20:06 13,2 C 11,8 C 69 % 1011,4 hPa 0,0 l/m 0 min 0 min 0,0 UV-I 63 W/m 5,1 km/h (1 Bft)
13.05.2013 20:08 13,2 C 11,8 C 69 % 1011,4 hPa 0,0 l/m 0 min 0 min 0,0 UV-I 69 W/m 0,0 km/h (0 Bft)
13.05.2013 20:10 13,2 C 11,8 C 70 % 1011,4 hPa 0,0 l/m 0 min 0 min 0,0 UV-I 70 W/m 2,6 km/h (1 Bft)
13.05.2013 20:12 13,2 C 11,8 C 70 % 1011,4 hPa 0,0 l/m 0 min 0 min 0,0 UV-I 69 W/m 0,0 km/h (0 Bft)
13.05.2013 20:14 13,2 C 11,8 C 70 % 1011,4 hPa 0,0 l/m 0 min 0 min 0,0 UV-I 65 W/m 0,0 km/h (0 Bft)
13.05.2013 20:16 13,2 C 11,8 C 70 % 1011,4 hPa 0,0 l/m 0 min 0 min 0,0 UV-I 56 W/m 0,0 km/h (0 Bft)
13.05.2013 20:18 13,2 C 11,8 C 70 % 1011,4 hPa 0,0 l/m 0 min 0 min 0,0 UV-I 49 W/m 5,1 km/h (1 Bft)
13.05.2013 20:20 13,2 C 11,8 C 70 % 1011,4 hPa 0,0 l/m 0 min 0 min 0,0 UV-I 44 W/m 0,0 km/h (0 Bft)
13.05.2013 20:22 13,2 C 11,8 C 70 % 1011,4 hPa 0,0 l/m 0 min 0 min 0,0 UV-I 46 W/m 5,1 km/h (1 Bft)
13.05.2013 20:24 13,1 C 11,8 C 70 % 1011,5 hPa 0,0 l/m 0 min 0 min 0,0 UV-I 51 W/m 7,7 km/h (2 Bft)
13.05.2013 20:26 13,1 C 11,8 C 70 % 1011,5 hPa 0,0 l/m 0 min 0 min 0,0 UV-I 54 W/m 0,0 km/h (0 Bft)
13.05.2013 20:28 13,1 C 11,8 C 70 % 1011,4 hPa 0,0 l/m 0 min 0 min 0,0 UV-I 53 W/m 12,9 km/h (3 Bft)
13.05.2013 20:30 13,1 C 11,8 C 70 % 1011,4 hPa 0,0 l/m 0 min 0 min 0,0 UV-I 47 W/m 12,9 km/h (3 Bft)
13.05.2013 20:32 13,1 C 11,8 C 70 % 1011,4 hPa 0,0 l/m 0 min 0 min 0,0 UV-I 44 W/m 10,3 km/h (2 Bft)
13.05.2013 20:34 13,1 C 11,8 C 70 % 1011,4 hPa 0,0 l/m 0 min 0 min 0,0 UV-I 42 W/m 0,0 km/h (0 Bft)
13.05.2013 20:36 13,1 C 11,2 C 70 % 1011,4 hPa 0,0 l/m 0 min 0 min 0,0 UV-I 42 W/m 5,1 km/h (1 Bft)
13.05.2013 20:38 13,1 C 11,2 C 71 % 1011,4 hPa 0,0 l/m 2 min 0 min 0,0 UV-I 42 W/m 5,1 km/h (1 Bft)
13.05.2013 20:40 13,0 C 11,2 C 71 % 1011,5 hPa 0,0 l/m 2 min 0 min 0,0 UV-I 39 W/m 5,1 km/h (1 Bft)
13.05.2013 20:42 12,9 C 11,2 C 71 % 1011,5 hPa 0,0 l/m 2 min 0 min 0,0 UV-I 37 W/m 15,4 km/h (3 Bft)
13.05.2013 20:44 12,9 C 11,2 C 71 % 1011,4 hPa 0,0 l/m 0 min 0 min 0,0 UV-I 32 W/m 2,6 km/h (1 Bft)
13.05.2013 20:46 12,9 C 11,2 C 71 % 1011,4 hPa 0,0 l/m 0 min 0 min 0,0 UV-I 23 W/m 0,0 km/h (0 Bft)
13.05.2013 20:48 12,9 C 10,7 C 71 % 1011,4 hPa 0,0 l/m 0 min 0 min 0,0 UV-I 18 W/m 0,0 km/h (0 Bft)
13.05.2013 20:50 12,9 C 10,7 C 72 % 1011,4 hPa 0,0 l/m 0 min 0 min 0,0 UV-I 16 W/m 0,0 km/h (0 Bft)
13.05.2013 20:52 12,9 C 10,7 C 71 % 1011,4 hPa 0,0 l/m 0 min 0 min 0,0 UV-I 14 W/m 0,0 km/h (0 Bft)
13.05.2013 20:54 12,8 C 10,7 C 71 % 1011,4 hPa 0,0 l/m 0 min 0 min 0,0 UV-I 12 W/m 0,0 km/h (0 Bft)
13.05.2013 20:56 12,8 C 10,7 C 71 % 1011,4 hPa 0,0 l/m 0 min 0 min 0,0 UV-I 12 W/m 0,0 km/h (0 Bft)
13.05.2013 20:58 12,8 C 10,7 C 72 % 1011,5 hPa 0,0 l/m 0 min 0 min 0,0 UV-I 9 W/m 0,0 km/h (0 Bft)
13.05.2013 21:00 12,8 C 10,1 C 72 % 1011,4 hPa 0,0 l/m 0 min 0 min 0,0 UV-I 9 W/m 0,0 km/h (0 Bft)
13.05.2013 21:02 12,7 C 10,1 C 72 % 1011,4 hPa 0,0 l/m 0 min 0 min 0,0 UV-I 7 W/m 0,0 km/h (0 Bft)
13.05.2013 21:04 12,7 C 10,1 C 72 % 1011,5 hPa 0,0 l/m 0 min 0 min 0,0 UV-I 7 W/m 0,0 km/h (0 Bft)
13.05.2013 21:06 12,7 C 10,1 C 72 % 1011,4 hPa 0,0 l/m 0 min 0 min 0,0 UV-I 7 W/m 0,0 km/h (0 Bft)
13.05.2013 21:08 12,7 C 10,1 C 73 % 1011,5 hPa 0,0 l/m 0 min 0 min 0,0 UV-I 5 W/m 0,0 km/h (0 Bft)
13.05.2013 21:10 12,6 C 10,1 C 73 % 1011,5 hPa 0,0 l/m 0 min 0 min 0,0 UV-I 5 W/m 0,0 km/h (0 Bft)
13.05.2013 21:12 12,6 C 10,1 C 73 % 1011,4 hPa 0,0 l/m 0 min 0 min 0,0 UV-I 5 W/m 0,0 km/h (0 Bft)
13.05.2013 21:14 12,5 C 10,1 C 73 % 1011,5 hPa 0,0 l/m 0 min 0 min 0,0 UV-I 0 W/m 0,0 km/h (0 Bft)
13.05.2013 21:16 12,4 C 10,1 C 73 % 1011,5 hPa 0,0 l/m 0 min 0 min 0,0 UV-I 0 W/m 0,0 km/h (0 Bft)
13.05.2013 21:18 12,4 C 10,1 C 74 % 1011,5 hPa 0,0 l/m 0 min 0 min 0,0 UV-I 0 W/m 0,0 km/h (0 Bft)
13.05.2013 21:20 12,4 C 10,1 C 74 % 1011,5 hPa 0,0 l/m 0 min 0 min 0,0 UV-I 0 W/m 0,0 km/h (0 Bft)
13.05.2013 21:22 12,3 C 10,7 C 74 % 1011,5 hPa 0,0 l/m 0 min 0 min 0,0 UV-I 0 W/m 0,0 km/h (0 Bft)
13.05.2013 21:24 12,3 C 10,1 C 74 % 1011,5 hPa 0,0 l/m 0 min 0 min 0,0 UV-I 0 W/m 0,0 km/h (0 Bft)
13.05.2013 21:26 12,3 C 10,1 C 74 % 1011,5 hPa 0,0 l/m 0 min 0 min 0,0 UV-I 0 W/m 0,0 km/h (0 Bft)
13.05.2013 21:28 12,2 C 10,1 C 74 % 1011,5 hPa 0,0 l/m 0 min 0 min 0,0 UV-I 0 W/m 5,1 km/h (1 Bft)
13.05.2013 21:30 12,2 C 10,1 C 75 % 1011,5 hPa 0,0 l/m 0 min 0 min 0,0 UV-I 0 W/m 2,6 km/h (1 Bft)
13.05.2013 21:32 12,2 C 10,1 C 75 % 1011,5 hPa 0,0 l/m 0 min 0 min 0,0 UV-I 0 W/m 0,0 km/h (0 Bft)
13.05.2013 21:34 12,1 C 10,1 C 75 % 1011,4 hPa 0,0 l/m 0 min 0 min 0,0 UV-I 0 W/m 0,0 km/h (0 Bft)
13.05.2013 21:36 12,1 C 10,1 C 75 % 1011,5 hPa 0,0 l/m 0 min 0 min 0,0 UV-I 0 W/m 0,0 km/h (0 Bft)
13.05.2013 21:38 12,1 C 10,1 C 75 % 1011,5 hPa 0,0 l/m 0 min 0 min 0,0 UV-I 0 W/m 2,6 km/h (1 Bft)
13.05.2013 21:40 12,1 C 10,1 C 75 % 1011,5 hPa 0,0 l/m 0 min 0 min 0,0 UV-I 0 W/m 0,0 km/h (0 Bft)
13.05.2013 21:42 12,1 C 10,1 C 75 % 1011,6 hPa 0,0 l/m 0 min 0 min 0,0 UV-I 0 W/m 0,0 km/h (0 Bft)
13.05.2013 21:44 12,0 C 10,1 C 75 % 1011,6 hPa 0,0 l/m 0 min 0 min 0,0 UV-I 0 W/m 2,6 km/h (1 Bft)
13.05.2013 21:46 12,0 C 10,1 C 75 % 1011,6 hPa 0,0 l/m 0 min 0 min 0,0 UV-I 0 W/m 0,0 km/h (0 Bft)
13.05.2013 21:48 11,9 C 10,1 C 76 % 1011,6 hPa 0,0 l/m 0 min 0 min 0,0 UV-I 0 W/m 0,0 km/h (0 Bft)
13.05.2013 21:50 11,9 C 10,1 C 76 % 1011,6 hPa 0,0 l/m 0 min 0 min 0,0 UV-I 0 W/m 0,0 km/h (0 Bft)
13.05.2013 21:52 11,9 C 10,1 C 76 % 1011,6 hPa 0,0 l/m 0 min 0 min 0,0 UV-I 0 W/m 0,0 km/h (0 Bft)
13.05.2013 21:54 11,9 C 10,1 C 76 % 1011,6 hPa 0,0 l/m 0 min 0 min 0,0 UV-I 0 W/m 5,1 km/h (1 Bft)
13.05.2013 21:56 11,8 C 10,1 C 76 % 1011,6 hPa 0,0 l/m 0 min 0 min 0,0 UV-I 0 W/m 0,0 km/h (0 Bft)
13.05.2013 21:58 11,8 C 10,1 C 76 % 1011,5 hPa 0,0 l/m 0 min 0 min 0,0 UV-I 0 W/m 15,4 km/h (3 Bft)
13.05.2013 22:00 11,8 C 10,1 C 76 % 1011,4 hPa 0,0 l/m 0 min 0 min 0,0 UV-I 0 W/m 10,3 km/h (2 Bft)
13.05.2013 22:02 11,7 C 10,1 C 77 % 1011,3 hPa 0,0 l/m 0 min 0 min 0,0 UV-I 0 W/m 5,1 km/h (1 Bft)
13.05.2013 22:04 11,7 C 10,1 C 77 % 1011,3 hPa 0,0 l/m 0 min 0 min 0,0 UV-I 0 W/m 0,0 km/h (0 Bft)
13.05.2013 22:06 11,7 C 10,1 C 77 % 1011,2 hPa 0,0 l/m 0 min 0 min 0,0 UV-I 0 W/m 2,6 km/h (1 Bft)
13.05.2013 22:08 11,7 C 9,6 C 77 % 1011,3 hPa 0,0 l/m 0 min 0 min 0,0 UV-I 0 W/m 0,0 km/h (0 Bft)
13.05.2013 22:10 11,7 C 10,1 C 77 % 1011,4 hPa 0,0 l/m 0 min 0 min 0,0 UV-I 0 W/m 12,9 km/h (3 Bft)
13.05.2013 22:12 11,6 C 10,1 C 77 % 1011,4 hPa 0,0 l/m 0 min 0 min 0,0 UV-I 0 W/m 2,6 km/h (1 Bft)
13.05.2013 22:14 11,6 C 10,1 C 77 % 1011,4 hPa 0,0 l/m 0 min 0 min 0,0 UV-I 0 W/m 5,1 km/h (1 Bft)
13.05.2013 22:16 11,6 C 10,1 C 78 % 1011,3 hPa 0,0 l/m 0 min 0 min 0,0 UV-I 0 W/m 5,1 km/h (1 Bft)
13.05.2013 22:18 11,6 C 10,1 C 78 % 1011,4 hPa 0,0 l/m 0 min 0 min 0,0 UV-I 0 W/m 0,0 km/h (0 Bft)
13.05.2013 22:20 11,6 C 10,1 C 78 % 1011,4 hPa 0,0 l/m 0 min 0 min 0,0 UV-I 0 W/m 0,0 km/h (0 Bft)
13.05.2013 22:22 11,6 C 10,1 C 78 % 1011,5 hPa 0,0 l/m 0 min 0 min 0,0 UV-I 0 W/m 10,3 km/h (2 Bft)
13.05.2013 22:24 11,6 C 10,1 C 78 % 1011,6 hPa 0,0 l/m 0 min 0 min 0,0 UV-I 0 W/m 7,7 km/h (2 Bft)
13.05.2013 22:26 11,6 C 10,1 C 78 % 1011,4 hPa 0,0 l/m 0 min 0 min 0,0 UV-I 0 W/m 0,0 km/h (0 Bft)
13.05.2013 22:28 11,5 C 10,1 C 78 % 1011,3 hPa 0,0 l/m 0 min 0 min 0,0 UV-I 0 W/m 12,9 km/h (3 Bft)
13.05.2013 22:30 11,5 C 10,1 C 79 % 1011,4 hPa 0,0 l/m 0 min 0 min 0,0 UV-I 0 W/m 10,3 km/h (2 Bft)
13.05.2013 22:32 11,6 C 10,1 C 79 % 1011,5 hPa 0,0 l/m 0 min 0 min 0,0 UV-I 0 W/m 12,9 km/h (3 Bft)
13.05.2013 22:34 11,6 C 10,1 C 79 % 1011,5 hPa 0,0 l/m 0 min 0 min 0,0 UV-I 0 W/m 10,3 km/h (2 Bft)
13.05.2013 22:36 11,6 C 10,1 C 79 % 1011,4 hPa 0,0 l/m 0 min 0 min 0,0 UV-I 0 W/m 18,0 km/h (3 Bft)
13.05.2013 22:38 11,6 C 10,1 C 79 % 1011,5 hPa 0,0 l/m 0 min 0 min 0,0 UV-I 0 W/m 15,4 km/h (3 Bft)
13.05.2013 22:40 11,6 C 10,1 C 79 % 1011,5 hPa 0,0 l/m 0 min 0 min 0,0 UV-I 0 W/m 10,3 km/h (2 Bft)
13.05.2013 22:42 11,6 C 10,1 C 79 % 1011,5 hPa 0,0 l/m 0 min 0 min 0,0 UV-I 0 W/m 10,3 km/h (2 Bft)
13.05.2013 22:44 11,6 C 10,1 C 79 % 1011,5 hPa 0,0 l/m 0 min 0 min 0,0 UV-I 0 W/m 12,9 km/h (3 Bft)
13.05.2013 22:46 11,6 C 10,1 C 79 % 1011,4 hPa 0,0 l/m 0 min 0 min 0,0 UV-I 0 W/m 12,9 km/h (3 Bft)
13.05.2013 22:48 11,6 C 10,1 C 79 % 1011,5 hPa 0,0 l/m 0 min 0 min 0,0 UV-I 0 W/m 10,3 km/h (2 Bft)
13.05.2013 22:50 11,6 C 10,1 C 78 % 1011,5 hPa 0,0 l/m 0 min 0 min 0,0 UV-I 0 W/m 5,1 km/h (1 Bft)
13.05.2013 22:52 11,6 C 10,1 C 78 % 1011,5 hPa 0,0 l/m 0 min 0 min 0,0 UV-I 0 W/m 5,1 km/h (1 Bft)
13.05.2013 22:54 11,5 C 10,1 C 78 % 1011,4 hPa 0,0 l/m 0 min 0 min 0,0 UV-I 0 W/m 10,3 km/h (2 Bft)
13.05.2013 22:56 11,5 C 10,1 C 77 % 1011,5 hPa 0,0 l/m 0 min 0 min 0,0 UV-I 0 W/m 18,0 km/h (3 Bft)
13.05.2013 22:58 11,4 C 10,1 C 75 % 1011,4 hPa 0,0 l/m 0 min 0 min 0,0 UV-I 0 W/m 18,0 km/h (3 Bft)
13.05.2013 23:00 11,4 C 10,1 C 75 % 1011,4 hPa 0,0 l/m 0 min 0 min 0,0 UV-I 0 W/m 18,0 km/h (3 Bft)
13.05.2013 23:02 11,4 C 10,1 C 75 % 1011,4 hPa 0,0 l/m 0 min 0 min 0,0 UV-I 0 W/m 15,4 km/h (3 Bft)
13.05.2013 23:04 11,4 C 10,1 C 73 % 1011,4 hPa 0,0 l/m 0 min 0 min 0,0 UV-I 0 W/m 15,4 km/h (3 Bft)
13.05.2013 23:06 11,4 C 10,1 C 73 % 1011,5 hPa 0,0 l/m 0 min 0 min 0,0 UV-I 0 W/m 23,2 km/h (4 Bft)
13.05.2013 23:08 11,4 C 10,1 C 73 % 1011,4 hPa 0,0 l/m 0 min 0 min 0,0 UV-I 0 W/m 10,3 km/h (2 Bft)
13.05.2013 23:10 11,3 C 9,6 C 73 % 1011,4 hPa 0,0 l/m 0 min 0 min 0,0 UV-I 0 W/m 7,7 km/h (2 Bft)
13.05.2013 23:12 11,3 C 9,6 C 72 % 1011,4 hPa 0,0 l/m 0 min 0 min 0,0 UV-I 0 W/m 18,0 km/h (3 Bft)
13.05.2013 23:14 11,3 C 10,1 C 72 % 1011,4 hPa 0,0 l/m 0 min 0 min 0,0 UV-I 0 W/m 18,0 km/h (3 Bft)
13.05.2013 23:16 11,3 C 9,6 C 72 % 1011,3 hPa 0,0 l/m 0 min 0 min 0,0 UV-I 0 W/m 15,4 km/h (3 Bft)
13.05.2013 23:18 11,3 C 9,6 C 72 % 1011,3 hPa 0,0 l/m 0 min 0 min 0,0 UV-I 0 W/m 10,3 km/h (2 Bft)
13.05.2013 23:20 11,3 C 9,6 C 72 % 1011,3 hPa 0,0 l/m 0 min 0 min 0,0 UV-I 0 W/m 10,3 km/h (2 Bft)
13.05.2013 23:22 11,2 C 9,6 C 72 % 1011,3 hPa 0,0 l/m 0 min 0 min 0,0 UV-I 0 W/m 10,3 km/h (2 Bft)
13.05.2013 23:24 11,2 C 9,6 C 72 % 1011,4 hPa 0,0 l/m 0 min 0 min 0,0 UV-I 0 W/m 18,0 km/h (3 Bft)
13.05.2013 23:26 11,2 C 9,6 C 72 % 1011,3 hPa 0,0 l/m 0 min 0 min 0,0 UV-I 0 W/m 5,1 km/h (1 Bft)
13.05.2013 23:28 11,2 C 9,6 C 73 % 1011,3 hPa 0,0 l/m 0 min 0 min 0,0 UV-I 0 W/m 10,3 km/h (2 Bft)
13.05.2013 23:30 11,2 C 9,6 C 73 % 1011,5 hPa 0,0 l/m 0 min 0 min 0,0 UV-I 0 W/m 18,0 km/h (3 Bft)
13.05.2013 23:32 11,2 C 9,6 C 72 % 1011,3 hPa 0,0 l/m 0 min 0 min 0,0 UV-I 0 W/m 18,0 km/h (3 Bft)
13.05.2013 23:34 11,1 C 9,6 C 72 % 1011,3 hPa 0,0 l/m 0 min 0 min 0,0 UV-I 0 W/m 18,0 km/h (3 Bft)
13.05.2013 23:36 11,1 C 9,6 C 72 % 1011,3 hPa 0,0 l/m 0 min 0 min 0,0 UV-I 0 W/m 20,6 km/h (4 Bft)
13.05.2013 23:38 11,1 C 9,6 C 72 % 1011,2 hPa 0,0 l/m 0 min 0 min 0,0 UV-I 0 W/m 18,0 km/h (3 Bft)
13.05.2013 23:40 11,1 C 9,6 C 72 % 1011,3 hPa 0,0 l/m 0 min 0 min 0,0 UV-I 0 W/m 18,0 km/h (3 Bft)
13.05.2013 23:42 11,1 C 9,6 C 72 % 1011,2 hPa 0,0 l/m 0 min 0 min 0,0 UV-I 0 W/m 25,7 km/h (4 Bft)
13.05.2013 23:44 11,1 C 9,6 C 72 % 1011,2 hPa 0,0 l/m 0 min 0 min 0,0 UV-I 0 W/m 23,2 km/h (4 Bft)
13.05.2013 23:46 11,1 C 9,6 C 72 % 1011,2 hPa 0,0 l/m 0 min 0 min 0,0 UV-I 0 W/m 15,4 km/h (3 Bft)
13.05.2013 23:48 11,0 C 9,6 C 72 % 1011,2 hPa 0,0 l/m 0 min 0 min 0,0 UV-I 0 W/m 7,7 km/h (2 Bft)
13.05.2013 23:50 11,0 C 9,6 C 72 % 1011,0 hPa 0,0 l/m 0 min 0 min 0,0 UV-I 0 W/m 10,3 km/h (2 Bft)
13.05.2013 23:52 11,0 C 9,6 C 73 % 1011,1 hPa 0,0 l/m 0 min 0 min 0,0 UV-I 0 W/m 12,9 km/h (3 Bft)
13.05.2013 23:54 10,9 C 9,6 C 73 % 1011,1 hPa 0,0 l/m 0 min 0 min 0,0 UV-I 0 W/m 10,3 km/h (2 Bft)
13.05.2013 23:56 10,9 C 9,6 C 73 % 1011,0 hPa 0,0 l/m 0 min 0 min 0,0 UV-I 0 W/m 10,3 km/h (2 Bft)
13.05.2013 23:58 10,9 C 9,6 C 73 % 1011,1 hPa 0,0 l/m 0 min 0 min 0,0 UV-I 0 W/m 15,4 km/h (3 Bft)
_ Min-Zeit 03:24 01:30 18:40 23:50 - - - - - 00:00
Minimum _ 8,2 C 6,8 C 61 % 1011,0 hPa - - - - - 0,0 km/h (0 Bft)
_ Max-Zeit 15:20 15:20 08:36 00:40 01:42 13:42 01:02 13:48 14:40 18:50
Maximum _ 15,2 C 15,7 C 99 % 1016,4 hPa 0,2 l/m 2 min 2 min 4,3 UV-I 969 W/m 33,5 km/h
W-SW (5 Bft)
Durchschnitt _ 11,3 C 10,2 C 86 % 1012,8 hPa #4,0 l/m #1:08 h #5:17 h 1,5 UV-I 149 W/m 9,3 km/h (2 Bft)
© 2013 W. Hausmann